Time,TemperatureF,DewpointF,PressureIn,WindDirection,WindDirectionDegrees,WindSpeedMPH,WindSpeedGustMPH,Humidity,HourlyPrecipIn,Conditions,Clouds,dailyrainin,SoftwareType,DateUTC
2013-04-28 00:00:00,54.8,39.0,30.20,SSE,165,1.0,3.0,55,0.00,,---,0.00,VWS V14.01,2013-04-28 04:00:00,
2013-04-28 00:01:00,54.8,39.0,30.20,SSE,165,1.0,3.0,55,0.00,,---,0.00,VWS V14.01,2013-04-28 04:01:00,
2013-04-28 00:06:00,54.5,38.7,30.20,SSE,165,0.0,0.0,55,0.00,,---,0.00,VWS V14.01,2013-04-28 04:06:00,
2013-04-28 00:11:00,54.2,38.9,30.20,SSE,165,0.0,0.0,56,0.00,,---,0.00,VWS V14.01,2013-04-28 04:11:00,
2013-04-28 00:16:00,54.1,38.8,30.20,SSE,165,0.0,0.0,56,0.00,,---,0.00,VWS V14.01,2013-04-28 04:16:00,
2013-04-28 00:21:00,53.8,38.9,30.20,SSE,165,0.0,0.0,57,0.00,,---,0.00,VWS V14.01,2013-04-28 04:21:00,
2013-04-28 00:22:00,53.8,39.4,30.20,SSE,165,0.0,0.0,58,0.00,,---,0.00,VWS V14.01,2013-04-28 04:22:00,
2013-04-28 00:26:00,53.6,39.6,30.20,SSE,165,0.0,0.0,59,0.00,,---,0.00,VWS V14.01,2013-04-28 04:26:00,
2013-04-28 00:27:00,53.6,39.6,30.20,SSE,165,0.0,0.0,59,0.00,,---,0.00,VWS V14.01,2013-04-28 04:27:00,
2013-04-28 00:31:00,53.3,39.8,30.20,SSE,165,0.0,0.0,60,0.00,,---,0.00,VWS V14.01,2013-04-28 04:31:00,
2013-04-28 00:32:00,53.3,39.8,30.20,SSE,165,0.0,0.0,60,0.00,,---,0.00,VWS V14.01,2013-04-28 04:32:00,
2013-04-28 00:36:00,53.1,39.6,30.19,SSE,165,0.0,0.0,60,0.00,,---,0.00,VWS V14.01,2013-04-28 04:36:00,
2013-04-28 00:37:00,53.1,39.6,30.19,SSE,165,0.0,0.0,60,0.00,,---,0.00,VWS V14.01,2013-04-28 04:37:00,
2013-04-28 00:41:00,52.8,39.3,30.19,SSE,165,0.0,0.0,60,0.00,,---,0.00,VWS V14.01,2013-04-28 04:41:00,
2013-04-28 00:42:00,52.8,39.3,30.19,SSE,165,0.0,0.0,60,0.00,,---,0.00,VWS V14.01,2013-04-28 04:42:00,
2013-04-28 00:46:00,52.5,39.5,30.19,SSE,165,0.0,0.0,61,0.00,,---,0.00,VWS V14.01,2013-04-28 04:46:00,
2013-04-28 00:47:00,52.5,39.5,30.19,SSE,165,0.0,0.0,61,0.00,,---,0.00,VWS V14.01,2013-04-28 04:47:00,
2013-04-28 00:51:00,52.2,39.2,30.19,SSE,165,1.0,1.0,61,0.00,,---,0.00,VWS V14.01,2013-04-28 04:51:00,
2013-04-28 00:52:00,52.2,39.2,30.19,SSE,165,0.0,0.0,61,0.00,,---,0.00,VWS V14.01,2013-04-28 04:52:00,
2013-04-28 00:56:00,52.0,39.4,30.19,SSE,165,0.0,0.0,62,0.00,,---,0.00,VWS V14.01,2013-04-28 04:56:00,
2013-04-28 00:57:00,51.9,39.3,30.19,SSE,165,0.0,0.0,62,0.00,,---,0.00,VWS V14.01,2013-04-28 04:57:00,
2013-04-28 01:01:00,51.7,39.1,30.19,SSE,165,0.0,0.0,62,0.00,,---,0.00,VWS V14.01,2013-04-28 05:01:00,
2013-04-28 01:02:00,51.7,39.1,30.19,SSE,165,0.0,0.0,62,0.00,,---,0.00,VWS V14.01,2013-04-28 05:02:00,
2013-04-28 01:06:00,51.6,39.4,30.19,SSE,165,0.0,1.0,63,0.00,,---,0.00,VWS V14.01,2013-04-28 05:06:00,
2013-04-28 01:07:00,51.6,39.4,30.19,SSE,165,0.0,0.0,63,0.00,,---,0.00,VWS V14.01,2013-04-28 05:07:00,
2013-04-28 01:11:00,51.4,39.2,30.19,SSE,165,2.0,3.0,63,0.00,,---,0.00,VWS V14.01,2013-04-28 05:11:00,
2013-04-28 01:12:00,51.4,39.2,30.19,SSE,165,2.0,3.0,63,0.00,,---,0.00,VWS V14.01,2013-04-28 05:12:00,
2013-04-28 01:17:00,51.3,39.2,30.19,SSE,165,3.0,4.0,63,0.00,,---,0.00,VWS V14.01,2013-04-28 05:17:00,
2013-04-28 01:22:00,51.1,39.0,30.20,SSE,165,4.0,5.0,63,0.00,,---,0.00,VWS V14.01,2013-04-28 05:22:00,
2013-04-28 01:27:00,51.0,39.3,30.20,SSE,165,0.0,0.0,64,0.00,,---,0.00,VWS V14.01,2013-04-28 05:27:00,
2013-04-28 01:28:00,51.0,39.3,30.20,SSE,165,0.0,0.0,64,0.00,,---,0.00,VWS V14.01,2013-04-28 05:28:00,
2013-04-28 01:32:00,50.8,39.1,30.19,SSE,165,0.0,0.0,64,0.00,,---,0.00,VWS V14.01,2013-04-28 05:32:00,
2013-04-28 01:33:00,50.8,39.1,30.19,SSE,165,0.0,0.0,64,0.00,,---,0.00,VWS V14.01,2013-04-28 05:33:00,
2013-04-28 01:37:00,50.8,39.1,30.19,SSE,165,2.0,2.0,64,0.00,,---,0.00,VWS V14.01,2013-04-28 05:37:00,
2013-04-28 01:38:00,50.7,39.0,30.19,SSE,165,0.0,0.0,64,0.00,,---,0.00,VWS V14.01,2013-04-28 05:38:00,
2013-04-28 01:42:00,50.7,39.0,30.19,SSE,165,0.0,0.0,64,0.00,,---,0.00,VWS V14.01,2013-04-28 05:42:00,
2013-04-28 01:43:00,50.5,38.8,30.19,SSE,165,0.0,0.0,64,0.00,,---,0.00,VWS V14.01,2013-04-28 05:43:00,
2013-04-28 01:47:00,50.5,38.8,30.19,SSE,165,0.0,0.0,64,0.00,,---,0.00,VWS V14.01,2013-04-28 05:47:00,
2013-04-28 01:48:00,50.5,38.8,30.19,SSE,165,0.0,0.0,64,0.00,,---,0.00,VWS V14.01,2013-04-28 05:48:00,
2013-04-28 01:52:00,50.4,39.1,30.19,SSE,165,0.0,0.0,65,0.00,,---,0.00,VWS V14.01,2013-04-28 05:52:00,
2013-04-28 01:53:00,50.4,39.1,30.19,SSE,165,0.0,0.0,65,0.00,,---,0.00,VWS V14.01,2013-04-28 05:53:00,
2013-04-28 01:57:00,50.2,39.3,30.19,SSE,165,0.0,0.0,66,0.00,,---,0.00,VWS V14.01,2013-04-28 05:57:00,
2013-04-28 01:58:00,50.1,39.6,30.19,SSE,165,0.0,0.0,67,0.00,,---,0.00,VWS V14.01,2013-04-28 05:58:00,
2013-04-28 02:02:00,49.9,39.4,30.19,SSE,165,0.0,0.0,67,0.00,,---,0.00,VWS V14.01,2013-04-28 06:02:00,
2013-04-28 02:03:00,49.9,39.4,30.19,SSE,165,0.0,0.0,67,0.00,,---,0.00,VWS V14.01,2013-04-28 06:03:00,
2013-04-28 02:07:00,49.8,39.3,30.19,SSE,165,0.0,0.0,67,0.00,,---,0.00,VWS V14.01,2013-04-28 06:07:00,
2013-04-28 02:08:00,49.6,39.1,30.19,SSE,165,0.0,0.0,67,0.00,,---,0.00,VWS V14.01,2013-04-28 06:08:00,
2013-04-28 02:12:00,49.5,39.0,30.19,SSE,165,0.0,0.0,67,0.00,,---,0.00,VWS V14.01,2013-04-28 06:12:00,
2013-04-28 02:13:00,49.5,39.0,30.19,SSE,165,0.0,0.0,67,0.00,,---,0.00,VWS V14.01,2013-04-28 06:13:00,
2013-04-28 02:17:00,49.4,38.5,30.18,SSE,165,0.0,0.0,66,0.00,,---,0.00,VWS V14.01,2013-04-28 06:17:00,
2013-04-28 02:18:00,49.4,38.5,30.18,SSE,165,0.0,1.0,66,0.00,,---,0.00,VWS V14.01,2013-04-28 06:18:00,
2013-04-28 02:22:00,49.1,38.6,30.18,SSE,165,1.0,1.0,67,0.00,,---,0.00,VWS V14.01,2013-04-28 06:22:00,
2013-04-28 02:23:00,49.1,38.6,30.18,SSE,165,0.0,0.0,67,0.00,,---,0.00,VWS V14.01,2013-04-28 06:23:00,
2013-04-28 02:27:00,48.8,38.3,30.18,SSE,165,0.0,0.0,67,0.00,,---,0.00,VWS V14.01,2013-04-28 06:27:00,
2013-04-28 02:28:00,48.8,38.3,30.18,SSE,165,0.0,0.0,67,0.00,,---,0.00,VWS V14.01,2013-04-28 06:28:00,
2013-04-28 02:29:00,48.8,38.3,30.18,SSE,165,1.0,1.0,67,0.00,,---,0.00,VWS V14.01,2013-04-28 06:29:00,
2013-04-28 02:32:00,48.6,38.5,30.17,SSE,165,0.0,0.0,68,0.00,,---,0.00,VWS V14.01,2013-04-28 06:32:00,
2013-04-28 02:33:00,48.6,38.5,30.17,SSE,165,0.0,0.0,68,0.00,,---,0.00,VWS V14.01,2013-04-28 06:33:00,
2013-04-28 02:34:00,48.6,38.5,30.17,SSE,165,0.0,0.0,68,0.00,,---,0.00,VWS V14.01,2013-04-28 06:34:00,
2013-04-28 02:37:00,48.5,38.8,30.17,SSE,165,0.0,0.0,69,0.00,,---,0.00,VWS V14.01,2013-04-28 06:37:00,
2013-04-28 02:38:00,48.5,38.8,30.17,SSE,165,0.0,0.0,69,0.00,,---,0.00,VWS V14.01,2013-04-28 06:38:00,
2013-04-28 02:39:00,48.3,38.6,30.17,SSE,165,0.0,0.0,69,0.00,,---,0.00,VWS V14.01,2013-04-28 06:39:00,
2013-04-28 02:43:00,48.2,38.9,30.17,SSE,165,0.0,1.0,70,0.00,,---,0.00,VWS V14.01,2013-04-28 06:43:00,
2013-04-28 02:44:00,48.2,38.9,30.17,SSE,165,0.0,0.0,70,0.00,,---,0.00,VWS V14.01,2013-04-28 06:44:00,
2013-04-28 02:48:00,48.0,39.1,30.17,SSE,165,0.0,0.0,71,0.00,,---,0.00,VWS V14.01,2013-04-28 06:48:00,
2013-04-28 02:49:00,48.0,39.1,30.17,SSE,165,0.0,0.0,71,0.00,,---,0.00,VWS V14.01,2013-04-28 06:49:00,
2013-04-28 02:53:00,47.9,39.3,30.17,SSE,165,0.0,0.0,72,0.00,,---,0.00,VWS V14.01,2013-04-28 06:53:00,
2013-04-28 02:54:00,47.9,39.3,30.17,SSE,165,0.0,0.0,72,0.00,,---,0.00,VWS V14.01,2013-04-28 06:54:00,
2013-04-28 02:58:00,47.7,39.1,30.17,SSE,165,0.0,0.0,72,0.00,,---,0.00,VWS V14.01,2013-04-28 06:58:00,
2013-04-28 02:59:00,47.6,39.0,30.17,SSE,165,0.0,0.0,72,0.00,,---,0.00,VWS V14.01,2013-04-28 06:59:00,
2013-04-28 03:03:00,47.6,39.0,30.16,SSE,165,0.0,3.0,72,0.00,,---,0.00,VWS V14.01,2013-04-28 07:03:00,
2013-04-28 03:04:00,47.4,38.8,30.16,SSE,165,2.0,3.0,72,0.00,,---,0.00,VWS V14.01,2013-04-28 07:04:00,
2013-04-28 03:08:00,47.4,39.2,30.16,SSE,165,0.0,0.0,73,0.00,,---,0.00,VWS V14.01,2013-04-28 07:08:00,
2013-04-28 03:09:00,47.3,39.1,30.16,SSE,165,2.0,2.0,73,0.00,,---,0.00,VWS V14.01,2013-04-28 07:09:00,
2013-04-28 03:13:00,47.3,39.5,30.16,SSE,165,2.0,3.0,74,0.00,,---,0.00,VWS V14.01,2013-04-28 07:13:00,
2013-04-28 03:14:00,47.3,39.5,30.16,SSE,165,2.0,3.0,74,0.00,,---,0.00,VWS V14.01,2013-04-28 07:14:00,
2013-04-28 03:18:00,47.1,39.2,30.16,SSE,165,0.0,0.0,74,0.00,,---,0.00,VWS V14.01,2013-04-28 07:18:00,
2013-04-28 03:19:00,47.1,39.2,30.16,SSE,165,0.0,0.0,74,0.00,,---,0.00,VWS V14.01,2013-04-28 07:19:00,
2013-04-28 03:23:00,47.1,39.6,30.16,SSE,165,0.0,0.0,75,0.00,,---,0.00,VWS V14.01,2013-04-28 07:23:00,
2013-04-28 03:24:00,47.1,39.6,30.16,SSE,165,0.0,4.0,75,0.00,,---,0.00,VWS V14.01,2013-04-28 07:24:00,
2013-04-28 03:28:00,47.1,39.6,30.16,South,190,0.0,3.0,75,0.00,,---,0.00,VWS V14.01,2013-04-28 07:28:00,
2013-04-28 03:29:00,47.1,39.6,30.16,South,190,0.0,0.0,75,0.00,,---,0.00,VWS V14.01,2013-04-28 07:29:00,
2013-04-28 03:33:00,47.3,39.8,30.16,SSW,203,1.0,4.0,75,0.00,,---,0.00,VWS V14.01,2013-04-28 07:33:00,
2013-04-28 03:34:00,47.3,39.8,30.16,SSW,203,0.0,0.0,75,0.00,,---,0.00,VWS V14.01,2013-04-28 07:34:00,
2013-04-28 03:38:00,47.3,39.8,30.16,SSW,203,5.0,5.0,75,0.00,,---,0.00,VWS V14.01,2013-04-28 07:38:00,
2013-04-28 03:39:00,47.3,39.8,30.16,SW,217,7.0,7.0,75,0.00,,---,0.00,VWS V14.01,2013-04-28 07:39:00,
2013-04-28 03:40:00,47.3,39.8,30.16,SW,217,0.0,7.0,75,0.00,,---,0.00,VWS V14.01,2013-04-28 07:40:00,
2013-04-28 03:43:00,47.3,39.8,30.16,SW,217,0.0,0.0,75,0.00,,---,0.00,VWS V14.01,2013-04-28 07:43:00,
2013-04-28 03:44:00,47.3,39.8,30.16,SW,217,0.0,0.0,75,0.00,,---,0.00,VWS V14.01,2013-04-28 07:44:00,
2013-04-28 03:45:00,47.3,39.8,30.16,SW,217,0.0,1.0,75,0.00,,---,0.00,VWS V14.01,2013-04-28 07:45:00,
2013-04-28 03:48:00,47.1,39.6,30.16,SW,217,0.0,0.0,75,0.00,,---,0.00,VWS V14.01,2013-04-28 07:48:00,
2013-04-28 03:49:00,47.1,39.6,30.16,SW,217,0.0,0.0,75,0.00,,---,0.00,VWS V14.01,2013-04-28 07:49:00,
2013-04-28 03:50:00,47.1,39.6,30.16,SW,217,2.0,4.0,75,0.00,,---,0.00,VWS V14.01,2013-04-28 07:50:00,
2013-04-28 03:53:00,47.1,39.6,30.16,SW,217,3.0,3.0,75,0.00,,---,0.00,VWS V14.01,2013-04-28 07:53:00,
2013-04-28 03:54:00,47.1,39.6,30.16,SW,217,2.0,3.0,75,0.00,,---,0.00,VWS V14.01,2013-04-28 07:54:00,
2013-04-28 03:55:00,47.1,39.6,30.16,SW,217,3.0,3.0,75,0.00,,---,0.00,VWS V14.01,2013-04-28 07:55:00,
2013-04-28 03:58:00,47.0,39.5,30.16,SW,217,0.0,3.0,75,0.00,,---,0.00,VWS V14.01,2013-04-28 07:58:00,
2013-04-28 03:59:00,47.0,39.5,30.16,SW,217,2.0,3.0,75,0.00,,---,0.00,VWS V14.01,2013-04-28 07:59:00,
2013-04-28 04:00:00,47.0,39.5,30.16,SW,217,3.0,4.0,75,0.00,,---,0.00,VWS V14.01,2013-04-28 08:00:00,
2013-04-28 04:04:00,47.0,39.5,30.16,SW,217,0.0,0.0,75,0.00,,---,0.00,VWS V14.01,2013-04-28 08:04:00,
2013-04-28 04:05:00,47.0,39.5,30.16,SW,217,2.0,3.0,75,0.00,,---,0.00,VWS V14.01,2013-04-28 08:05:00,
2013-04-28 04:09:00,46.8,39.3,30.16,SW,217,0.0,0.0,75,0.00,,---,0.00,VWS V14.01,2013-04-28 08:09:00,
2013-04-28 04:10:00,46.8,39.3,30.16,SW,217,0.0,0.0,75,0.00,,---,0.00,VWS V14.01,2013-04-28 08:10:00,
2013-04-28 04:14:00,46.8,39.3,30.16,SW,217,0.0,0.0,75,0.00,,---,0.00,VWS V14.01,2013-04-28 08:14:00,
2013-04-28 04:15:00,46.8,39.3,30.16,SW,217,0.0,0.0,75,0.00,,---,0.00,VWS V14.01,2013-04-28 08:15:00,
2013-04-28 04:19:00,46.7,39.2,30.16,SW,217,0.0,0.0,75,0.00,,---,0.00,VWS V14.01,2013-04-28 08:19:00,
2013-04-28 04:20:00,46.7,39.2,30.16,SW,217,0.0,0.0,75,0.00,,---,0.00,VWS V14.01,2013-04-28 08:20:00,
2013-04-28 04:24:00,46.5,39.0,30.16,SW,217,0.0,2.0,75,0.00,,---,0.00,VWS V14.01,2013-04-28 08:24:00,
2013-04-28 04:25:00,46.5,39.0,30.16,SW,217,0.0,0.0,75,0.00,,---,0.00,VWS V14.01,2013-04-28 08:25:00,
2013-04-28 04:29:00,46.4,39.3,30.16,SW,217,0.0,0.0,76,0.00,,---,0.00,VWS V14.01,2013-04-28 08:29:00,
2013-04-28 04:30:00,46.4,39.3,30.16,SW,217,0.0,0.0,76,0.00,,---,0.00,VWS V14.01,2013-04-28 08:30:00,
2013-04-28 04:34:00,46.2,39.1,30.16,SW,217,0.0,0.0,76,0.00,,---,0.00,VWS V14.01,2013-04-28 08:34:00,
2013-04-28 04:35:00,46.2,39.1,30.16,SW,217,0.0,0.0,76,0.00,,---,0.00,VWS V14.01,2013-04-28 08:35:00,
2013-04-28 04:39:00,46.1,39.0,30.16,SW,217,0.0,0.0,76,0.00,,---,0.00,VWS V14.01,2013-04-28 08:39:00,
2013-04-28 04:40:00,46.1,39.3,30.16,SW,217,0.0,0.0,77,0.00,,---,0.00,VWS V14.01,2013-04-28 08:40:00,
2013-04-28 04:44:00,46.0,38.9,30.16,SW,217,0.0,0.0,76,0.00,,---,0.00,VWS V14.01,2013-04-28 08:44:00,
2013-04-28 04:45:00,46.0,39.2,30.16,SW,217,0.0,0.0,77,0.00,,---,0.00,VWS V14.01,2013-04-28 08:45:00,
2013-04-28 04:49:00,45.8,39.0,30.16,SW,217,0.0,0.0,77,0.00,,---,0.00,VWS V14.01,2013-04-28 08:49:00,
2013-04-28 04:51:00,45.7,38.9,30.16,SW,217,0.0,0.0,77,0.00,,---,0.00,VWS V14.01,2013-04-28 08:51:00,
2013-04-28 04:54:00,45.7,39.2,30.16,SW,217,0.0,0.0,78,0.00,,---,0.00,VWS V14.01,2013-04-28 08:54:00,
2013-04-28 04:56:00,45.5,39.0,30.16,SW,217,0.0,0.0,78,0.00,,---,0.00,VWS V14.01,2013-04-28 08:56:00,
2013-04-28 04:59:00,45.5,39.0,30.16,SW,217,0.0,0.0,78,0.00,,---,0.00,VWS V14.01,2013-04-28 08:59:00,
2013-04-28 05:01:00,45.4,39.0,30.16,SW,217,0.0,0.0,78,0.00,,---,0.00,VWS V14.01,2013-04-28 09:01:00,
2013-04-28 05:04:00,45.4,39.0,30.15,SW,217,0.0,0.0,78,0.00,,---,0.00,VWS V14.01,2013-04-28 09:04:00,
2013-04-28 05:06:00,45.2,39.1,30.15,SW,217,0.0,0.0,79,0.00,,---,0.00,VWS V14.01,2013-04-28 09:06:00,
2013-04-28 05:09:00,45.2,39.1,30.15,SW,217,0.0,0.0,79,0.00,,---,0.00,VWS V14.01,2013-04-28 09:09:00,
2013-04-28 05:11:00,45.1,39.0,30.15,SW,217,0.0,0.0,79,0.00,,---,0.00,VWS V14.01,2013-04-28 09:11:00,
2013-04-28 05:14:00,45.1,39.0,30.15,SW,217,0.0,0.0,79,0.00,,---,0.00,VWS V14.01,2013-04-28 09:14:00,
2013-04-28 05:16:00,44.9,38.8,30.15,SW,217,0.0,0.0,79,0.00,,---,0.00,VWS V14.01,2013-04-28 09:16:00,
2013-04-28 05:19:00,44.8,38.7,30.15,SW,217,0.0,0.0,79,0.00,,---,0.00,VWS V14.01,2013-04-28 09:19:00,
2013-04-28 05:20:00,44.8,38.7,30.15,SW,217,0.0,0.0,79,0.00,,---,0.00,VWS V14.01,2013-04-28 09:20:00,
2013-04-28 05:21:00,44.8,38.7,30.15,SW,217,0.0,0.0,79,0.00,,---,0.00,VWS V14.01,2013-04-28 09:21:00,
2013-04-28 05:24:00,44.8,38.7,30.15,SW,217,0.0,0.0,79,0.00,,---,0.00,VWS V14.01,2013-04-28 09:24:00,
2013-04-28 05:25:00,44.6,38.5,30.15,SW,217,0.0,0.0,79,0.00,,---,0.00,VWS V14.01,2013-04-28 09:25:00,
2013-04-28 05:26:00,44.6,38.5,30.15,SW,217,0.0,0.0,79,0.00,,---,0.00,VWS V14.01,2013-04-28 09:26:00,
2013-04-28 05:29:00,44.6,38.8,30.15,SW,217,0.0,0.0,80,0.00,,---,0.00,VWS V14.01,2013-04-28 09:29:00,
2013-04-28 05:30:00,44.6,38.8,30.15,SW,217,0.0,0.0,80,0.00,,---,0.00,VWS V14.01,2013-04-28 09:30:00,
2013-04-28 05:31:00,44.5,38.7,30.15,SW,217,0.0,0.0,80,0.00,,---,0.00,VWS V14.01,2013-04-28 09:31:00,
2013-04-28 05:34:00,44.5,38.7,30.15,SW,217,0.0,0.0,80,0.00,,---,0.00,VWS V14.01,2013-04-28 09:34:00,
2013-04-28 05:35:00,44.5,38.7,30.15,SW,217,0.0,0.0,80,0.00,,---,0.00,VWS V14.01,2013-04-28 09:35:00,
2013-04-28 05:36:00,44.3,38.5,30.15,SW,217,0.0,0.0,80,0.00,,---,0.00,VWS V14.01,2013-04-28 09:36:00,
2013-04-28 05:39:00,44.3,38.8,30.15,SW,217,0.0,0.0,81,0.00,,---,0.00,VWS V14.01,2013-04-28 09:39:00,
2013-04-28 05:40:00,44.3,38.8,30.15,SW,217,0.0,0.0,81,0.00,,---,0.00,VWS V14.01,2013-04-28 09:40:00,
2013-04-28 05:41:00,44.3,38.8,30.15,SW,217,0.0,0.0,81,0.00,,---,0.00,VWS V14.01,2013-04-28 09:41:00,
2013-04-28 05:44:00,44.3,38.8,30.15,SW,217,0.0,0.0,81,0.00,,---,0.00,VWS V14.01,2013-04-28 09:44:00,
2013-04-28 05:45:00,44.3,38.8,30.15,SW,217,0.0,0.0,81,0.00,,---,0.00,VWS V14.01,2013-04-28 09:45:00,
2013-04-28 05:46:00,44.3,38.8,30.15,SW,217,0.0,0.0,81,0.00,,---,0.00,VWS V14.01,2013-04-28 09:46:00,
2013-04-28 05:49:00,44.2,38.8,30.16,SW,217,0.0,0.0,81,0.00,,---,0.00,VWS V14.01,2013-04-28 09:49:00,
2013-04-28 05:50:00,44.2,38.8,30.16,SW,217,0.0,0.0,81,0.00,,---,0.00,VWS V14.01,2013-04-28 09:50:00,
2013-04-28 05:51:00,44.2,39.1,30.16,SW,217,0.0,0.0,82,0.00,,---,0.00,VWS V14.01,2013-04-28 09:51:00,
2013-04-28 05:54:00,44.2,39.1,30.16,SW,217,0.0,0.0,82,0.00,,---,0.00,VWS V14.01,2013-04-28 09:54:00,
2013-04-28 05:55:00,44.2,39.1,30.16,SW,217,0.0,0.0,82,0.00,,---,0.00,VWS V14.01,2013-04-28 09:55:00,
2013-04-28 05:56:00,44.1,39.0,30.16,SW,217,0.0,0.0,82,0.00,,---,0.00,VWS V14.01,2013-04-28 09:56:00,
2013-04-28 05:59:00,44.1,39.0,30.16,SW,217,0.0,0.0,82,0.00,,---,0.00,VWS V14.01,2013-04-28 09:59:00,
2013-04-28 06:00:00,44.1,39.0,30.16,SW,217,0.0,0.0,82,0.00,,---,0.00,VWS V14.01,2013-04-28 10:00:00,
2013-04-28 06:01:00,44.1,39.0,30.16,SW,217,0.0,0.0,82,0.00,,---,0.00,VWS V14.01,2013-04-28 10:01:00,
2013-04-28 06:05:00,43.9,38.8,30.16,SW,217,0.0,0.0,82,0.00,,---,0.00,VWS V14.01,2013-04-28 10:05:00,
2013-04-28 06:06:00,43.9,38.8,30.16,SW,217,0.0,0.0,82,0.00,,---,0.00,VWS V14.01,2013-04-28 10:06:00,
2013-04-28 06:10:00,43.8,38.7,30.16,SW,217,3.0,3.0,82,0.00,,---,0.00,VWS V14.01,2013-04-28 10:10:00,
2013-04-28 06:11:00,43.8,38.7,30.16,SW,217,0.0,3.0,82,0.00,,---,0.00,VWS V14.01,2013-04-28 10:11:00,
2013-04-28 06:15:00,43.8,38.7,30.16,SW,217,3.0,5.0,82,0.00,,---,0.00,VWS V14.01,2013-04-28 10:15:00,
2013-04-28 06:16:00,43.8,38.7,30.16,SW,217,0.0,1.0,82,0.00,,---,0.00,VWS V14.01,2013-04-28 10:16:00,
2013-04-28 06:20:00,43.8,38.7,30.17,SW,217,0.0,0.0,82,0.00,,---,0.00,VWS V14.01,2013-04-28 10:20:00,
2013-04-28 06:21:00,43.8,38.7,30.17,SW,217,0.0,1.0,82,0.00,,---,0.00,VWS V14.01,2013-04-28 10:21:00,
2013-04-28 06:25:00,43.6,38.8,30.17,SW,217,0.0,0.0,83,0.00,,---,0.00,VWS V14.01,2013-04-28 10:25:00,
2013-04-28 06:26:00,43.6,38.8,30.17,SW,217,0.0,0.0,83,0.00,,---,0.00,VWS V14.01,2013-04-28 10:26:00,
2013-04-28 06:27:00,43.6,38.8,30.17,SW,217,0.0,0.0,83,0.00,,---,0.00,VWS V14.01,2013-04-28 10:27:00,
2013-04-28 06:30:00,43.6,39.1,30.17,SW,217,0.0,0.0,84,0.00,,---,0.00,VWS V14.01,2013-04-28 10:30:00,
2013-04-28 06:31:00,43.6,39.1,30.17,SW,217,0.0,0.0,84,0.00,,---,0.00,VWS V14.01,2013-04-28 10:31:00,
2013-04-28 06:32:00,43.6,39.1,30.17,SW,217,0.0,0.0,84,0.00,,---,0.00,VWS V14.01,2013-04-28 10:32:00,
2013-04-28 06:35:00,43.8,39.3,30.17,SW,217,0.0,0.0,84,0.00,,---,0.00,VWS V14.01,2013-04-28 10:35:00,
2013-04-28 06:36:00,43.8,39.3,30.17,SW,217,0.0,2.0,84,0.00,,---,0.00,VWS V14.01,2013-04-28 10:36:00,
2013-04-28 06:37:00,43.8,39.6,30.17,SW,217,0.0,0.0,85,0.00,,---,0.00,VWS V14.01,2013-04-28 10:37:00,
2013-04-28 06:40:00,43.8,39.6,30.17,SW,217,0.0,0.0,85,0.00,,---,0.00,VWS V14.01,2013-04-28 10:40:00,
2013-04-28 06:41:00,43.8,39.6,30.17,SW,217,2.0,2.0,85,0.00,,---,0.00,VWS V14.01,2013-04-28 10:41:00,
2013-04-28 06:42:00,43.9,39.7,30.17,SW,217,0.0,0.0,85,0.00,,---,0.00,VWS V14.01,2013-04-28 10:42:00,
2013-04-28 06:45:00,43.9,39.7,30.17,SW,217,0.0,0.0,85,0.00,,---,0.00,VWS V14.01,2013-04-28 10:45:00,
2013-04-28 06:46:00,44.1,40.2,30.17,SW,217,0.0,0.0,86,0.00,,---,0.00,VWS V14.01,2013-04-28 10:46:00,
2013-04-28 06:47:00,44.1,40.2,30.17,SW,217,2.0,2.0,86,0.00,,---,0.00,VWS V14.01,2013-04-28 10:47:00,
2013-04-28 06:50:00,44.3,40.4,30.17,SW,217,1.0,3.0,86,0.00,,---,0.00,VWS V14.01,2013-04-28 10:50:00,
2013-04-28 06:51:00,44.3,40.4,30.17,SW,217,0.0,3.0,86,0.00,,---,0.00,VWS V14.01,2013-04-28 10:51:00,
2013-04-28 06:52:00,44.5,40.9,30.17,SW,217,0.0,3.0,87,0.00,,---,0.00,VWS V14.01,2013-04-28 10:52:00,
2013-04-28 06:55:00,44.8,41.2,30.17,SW,217,0.0,0.0,87,0.00,,---,0.00,VWS V14.01,2013-04-28 10:55:00,
2013-04-28 06:56:00,44.8,41.2,30.17,SW,217,0.0,0.0,87,0.00,,---,0.00,VWS V14.01,2013-04-28 10:56:00,
2013-04-28 06:57:00,44.9,41.3,30.17,SW,217,0.0,1.0,87,0.00,,---,0.00,VWS V14.01,2013-04-28 10:57:00,
2013-04-28 07:01:00,45.1,41.5,30.17,SW,217,0.0,1.0,87,0.00,,---,0.00,VWS V14.01,2013-04-28 11:01:00,
2013-04-28 07:02:00,45.2,41.9,30.17,SW,217,0.0,0.0,88,0.00,,---,0.00,VWS V14.01,2013-04-28 11:02:00,
2013-04-28 07:06:00,45.7,42.4,30.17,SW,217,0.0,1.0,88,0.00,,---,0.00,VWS V14.01,2013-04-28 11:06:00,
2013-04-28 07:07:00,45.8,42.5,30.17,SW,217,0.0,0.0,88,0.00,,---,0.00,VWS V14.01,2013-04-28 11:07:00,
2013-04-28 07:11:00,46.2,43.1,30.17,SW,217,0.0,1.0,89,0.00,,---,0.00,VWS V14.01,2013-04-28 11:11:00,
2013-04-28 07:12:00,46.4,43.0,30.17,SW,217,0.0,0.0,88,0.00,,---,0.00,VWS V14.01,2013-04-28 11:12:00,
2013-04-28 07:16:00,46.8,43.4,30.17,SW,217,0.0,0.0,88,0.00,,---,0.00,VWS V14.01,2013-04-28 11:16:00,
2013-04-28 07:17:00,47.0,43.6,30.17,SW,217,0.0,0.0,88,0.00,,---,0.00,VWS V14.01,2013-04-28 11:17:00,
2013-04-28 07:21:00,47.4,44.0,30.17,SW,217,0.0,0.0,88,0.00,,---,0.00,VWS V14.01,2013-04-28 11:21:00,
2013-04-28 07:23:00,47.7,44.3,30.17,SW,217,0.0,0.0,88,0.00,,---,0.00,VWS V14.01,2013-04-28 11:23:00,
2013-04-28 07:26:00,48.0,44.3,30.17,SW,217,0.0,0.0,87,0.00,,---,0.00,VWS V14.01,2013-04-28 11:26:00,
2013-04-28 07:28:00,48.2,44.5,30.17,SW,217,0.0,0.0,87,0.00,,---,0.00,VWS V14.01,2013-04-28 11:28:00,
2013-04-28 07:31:00,48.5,44.2,30.17,SW,217,0.0,0.0,85,0.00,,---,0.00,VWS V14.01,2013-04-28 11:31:00,
2013-04-28 07:33:00,48.6,44.0,30.16,SW,217,0.0,0.0,84,0.00,,---,0.00,VWS V14.01,2013-04-28 11:33:00,
2013-04-28 07:36:00,48.9,44.3,30.16,SW,217,0.0,2.0,84,0.00,,---,0.00,VWS V14.01,2013-04-28 11:36:00,
2013-04-28 07:37:00,48.9,44.3,30.16,SW,217,0.0,2.0,84,0.00,,---,0.00,VWS V14.01,2013-04-28 11:37:00,
2013-04-28 07:38:00,49.1,44.5,30.16,SW,217,0.0,0.0,84,0.00,,---,0.00,VWS V14.01,2013-04-28 11:38:00,
2013-04-28 07:41:00,49.4,44.5,30.16,SW,217,0.0,0.0,83,0.00,,---,0.00,VWS V14.01,2013-04-28 11:41:00,
2013-04-28 07:42:00,49.4,44.5,30.16,SW,217,0.0,0.0,83,0.00,,---,0.00,VWS V14.01,2013-04-28 11:42:00,
2013-04-28 07:43:00,49.5,44.2,30.16,SW,217,0.0,3.0,82,0.00,,---,0.00,VWS V14.01,2013-04-28 11:43:00,
2013-04-28 07:46:00,49.9,44.6,30.16,SW,217,3.0,4.0,82,0.00,,---,0.00,VWS V14.01,2013-04-28 11:46:00,
2013-04-28 07:47:00,49.9,44.6,30.16,SW,217,6.0,6.0,82,0.00,,---,0.00,VWS V14.01,2013-04-28 11:47:00,
2013-04-28 07:48:00,50.1,44.5,30.16,SW,217,4.0,5.0,81,0.00,,---,0.00,VWS V14.01,2013-04-28 11:48:00,
2013-04-28 07:51:00,50.4,44.1,30.16,SW,217,2.0,2.0,79,0.00,,---,0.00,VWS V14.01,2013-04-28 11:51:00,
2013-04-28 07:52:00,50.4,44.1,30.16,SW,217,3.0,3.0,79,0.00,,---,0.00,VWS V14.01,2013-04-28 11:52:00,
2013-04-28 07:54:00,50.5,44.2,30.16,SW,217,3.0,3.0,79,0.00,,---,0.00,VWS V14.01,2013-04-28 11:54:00,
2013-04-28 07:56:00,50.7,43.4,30.16,SW,217,1.0,3.0,76,0.00,,---,0.00,VWS V14.01,2013-04-28 11:56:00,
2013-04-28 07:57:00,50.7,43.4,30.16,SW,217,0.0,0.0,76,0.00,,---,0.00,VWS V14.01,2013-04-28 11:57:00,
2013-04-28 07:59:00,51.0,43.7,30.16,SW,217,2.0,2.0,76,0.00,,---,0.00,VWS V14.01,2013-04-28 11:59:00,
2013-04-28 08:01:00,51.3,43.7,30.16,SW,217,3.0,3.0,75,0.00,,---,0.00,VWS V14.01,2013-04-28 12:01:00,
2013-04-28 08:02:00,51.3,43.7,30.16,SW,217,4.0,4.0,75,0.00,,---,0.00,VWS V14.01,2013-04-28 12:02:00,
2013-04-28 08:04:00,51.4,43.8,30.16,SW,217,0.0,2.0,75,0.00,,---,0.00,VWS V14.01,2013-04-28 12:04:00,
2013-04-28 08:07:00,51.6,42.9,30.16,SW,217,0.0,1.0,72,0.00,,---,0.00,VWS V14.01,2013-04-28 12:07:00,
2013-04-28 08:09:00,51.7,43.0,30.16,SW,217,0.0,0.0,72,0.00,,---,0.00,VWS V14.01,2013-04-28 12:09:00,
2013-04-28 08:12:00,52.0,42.9,30.16,SW,217,1.0,4.0,71,0.00,,---,0.00,VWS V14.01,2013-04-28 12:12:00,
2013-04-28 08:14:00,52.2,43.1,30.16,SW,217,0.0,3.0,71,0.00,,---,0.00,VWS V14.01,2013-04-28 12:14:00,
2013-04-28 08:17:00,52.5,43.4,30.16,SW,217,3.0,6.0,71,0.00,,---,0.00,VWS V14.01,2013-04-28 12:17:00,
2013-04-28 08:19:00,52.6,43.1,30.16,SW,217,1.0,1.0,70,0.00,,---,0.00,VWS V14.01,2013-04-28 12:19:00,
2013-04-28 08:22:00,52.8,42.9,30.16,SSW,192,0.0,6.0,69,0.00,,---,0.00,VWS V14.01,2013-04-28 12:22:00,
2013-04-28 08:24:00,52.9,42.6,30.16,SSW,192,2.0,4.0,68,0.00,,---,0.00,VWS V14.01,2013-04-28 12:24:00,
2013-04-28 08:27:00,53.1,42.8,30.16,SSW,192,0.0,0.0,68,0.00,,---,0.00,VWS V14.01,2013-04-28 12:27:00,
2013-04-28 08:29:00,53.2,42.5,30.16,South,186,0.0,2.0,67,0.00,,---,0.00,VWS V14.01,2013-04-28 12:29:00,
2013-04-28 08:32:00,53.3,42.6,30.16,South,186,0.0,0.0,67,0.00,,---,0.00,VWS V14.01,2013-04-28 12:32:00,
2013-04-28 08:34:00,53.5,42.8,30.16,South,186,3.0,3.0,67,0.00,,---,0.00,VWS V14.01,2013-04-28 12:34:00,
2013-04-28 08:37:00,53.6,42.9,30.16,South,186,3.0,4.0,67,0.00,,---,0.00,VWS V14.01,2013-04-28 12:37:00,
2013-04-28 08:38:00,53.6,42.9,30.16,South,186,0.0,4.0,67,0.00,,---,0.00,VWS V14.01,2013-04-28 12:38:00,
2013-04-28 08:39:00,53.6,42.9,30.16,South,183,4.0,4.0,67,0.00,,---,0.00,VWS V14.01,2013-04-28 12:39:00,
2013-04-28 08:42:00,53.9,43.2,30.16,South,182,3.0,4.0,67,0.00,,---,0.00,VWS V14.01,2013-04-28 12:42:00,
2013-04-28 08:43:00,53.9,43.2,30.16,South,182,0.0,4.0,67,0.00,,---,0.00,VWS V14.01,2013-04-28 12:43:00,
2013-04-28 08:44:00,53.9,43.2,30.16,South,182,2.0,3.0,67,0.00,,---,0.00,VWS V14.01,2013-04-28 12:44:00,
2013-04-28 08:47:00,54.2,43.9,30.16,South,182,3.0,3.0,68,0.00,,---,0.00,VWS V14.01,2013-04-28 12:47:00,
2013-04-28 08:48:00,54.2,43.9,30.16,South,182,3.0,4.0,68,0.00,,---,0.00,VWS V14.01,2013-04-28 12:48:00,
2013-04-28 08:49:00,54.2,43.5,30.16,South,182,1.0,2.0,67,0.00,,---,0.00,VWS V14.01,2013-04-28 12:49:00,
2013-04-28 08:52:00,54.4,43.7,30.16,South,182,0.0,0.0,67,0.00,,---,0.00,VWS V14.01,2013-04-28 12:52:00,
2013-04-28 08:53:00,54.4,43.7,30.16,South,182,0.0,0.0,67,0.00,,---,0.00,VWS V14.01,2013-04-28 12:53:00,
2013-04-28 08:54:00,54.5,44.2,30.16,South,182,0.0,0.0,68,0.00,,---,0.00,VWS V14.01,2013-04-28 12:54:00,
2013-04-28 08:57:00,54.7,43.6,30.16,South,182,2.0,2.0,66,0.00,,---,0.00,VWS V14.01,2013-04-28 12:57:00,
2013-04-28 08:58:00,54.7,43.6,30.16,South,182,0.0,2.0,66,0.00,,---,0.00,VWS V14.01,2013-04-28 12:58:00,
2013-04-28 09:00:00,54.7,43.6,30.16,South,182,0.0,0.0,66,0.00,,---,0.00,VWS V14.01,2013-04-28 13:00:00,
2013-04-28 09:02:00,54.8,43.7,30.16,South,182,1.0,1.0,66,0.00,,---,0.00,VWS V14.01,2013-04-28 13:02:00,
2013-04-28 09:03:00,54.8,43.7,30.16,South,182,0.0,1.0,66,0.00,,---,0.00,VWS V14.01,2013-04-28 13:03:00,
2013-04-28 09:05:00,55.0,43.9,30.16,South,182,0.0,4.0,66,0.00,,---,0.00,VWS V14.01,2013-04-28 13:05:00,
2013-04-28 09:07:00,55.1,43.6,30.16,SE,131,2.0,4.0,65,0.00,,---,0.00,VWS V14.01,2013-04-28 13:07:00,
2013-04-28 09:08:00,55.1,43.6,30.16,ESE,123,4.0,4.0,65,0.00,,---,0.00,VWS V14.01,2013-04-28 13:08:00,
2013-04-28 09:10:00,55.3,43.8,30.16,ESE,123,0.0,0.0,65,0.00,,---,0.00,VWS V14.01,2013-04-28 13:10:00,
2013-04-28 09:12:00,55.4,43.8,30.16,ESE,115,1.0,5.0,65,0.00,,---,0.00,VWS V14.01,2013-04-28 13:12:00,
2013-04-28 09:13:00,55.4,43.8,30.16,ESE,115,2.0,2.0,65,0.00,,---,0.00,VWS V14.01,2013-04-28 13:13:00,
2013-04-28 09:15:00,55.4,43.4,30.16,ESE,115,0.0,2.0,64,0.00,,---,0.00,VWS V14.01,2013-04-28 13:15:00,
2013-04-28 09:17:00,55.6,43.6,30.15,ESE,115,3.0,3.0,64,0.00,,---,0.00,VWS V14.01,2013-04-28 13:17:00,
2013-04-28 09:18:00,55.6,43.6,30.15,ESE,115,1.0,3.0,64,0.00,,---,0.00,VWS V14.01,2013-04-28 13:18:00,
2013-04-28 09:20:00,55.7,44.1,30.15,ESE,115,0.0,0.0,65,0.00,,---,0.00,VWS V14.01,2013-04-28 13:20:00,
2013-04-28 09:22:00,55.7,43.7,30.15,SE,140,1.0,5.0,64,0.00,,---,0.00,VWS V14.01,2013-04-28 13:22:00,
2013-04-28 09:23:00,55.7,43.3,30.15,SE,140,0.0,0.0,63,0.00,,---,0.00,VWS V14.01,2013-04-28 13:23:00,
2013-04-28 09:25:00,55.9,43.5,30.15,East,84,2.0,7.0,63,0.00,,---,0.00,VWS V14.01,2013-04-28 13:25:00,
2013-04-28 09:27:00,55.9,43.5,30.15,ESE,117,4.0,6.0,63,0.00,,---,0.00,VWS V14.01,2013-04-28 13:27:00,
2013-04-28 09:28:00,55.9,43.1,30.15,SE,130,4.0,5.0,62,0.00,,---,0.00,VWS V14.01,2013-04-28 13:28:00,
2013-04-28 09:30:00,56.0,43.2,30.15,SSW,196,3.0,5.0,62,0.00,,---,0.00,VWS V14.01,2013-04-28 13:30:00,
2013-04-28 09:32:00,56.0,43.2,30.15,South,171,0.0,0.0,62,0.00,,---,0.00,VWS V14.01,2013-04-28 13:32:00,
2013-04-28 09:33:00,56.0,43.2,30.15,ESE,117,6.0,6.0,62,0.00,,---,0.00,VWS V14.01,2013-04-28 13:33:00,
2013-04-28 09:35:00,56.0,43.2,30.15,East,93,4.0,4.0,62,0.00,,---,0.00,VWS V14.01,2013-04-28 13:35:00,
2013-04-28 09:37:00,56.0,43.2,30.15,SE,130,4.0,4.0,62,0.00,,---,0.00,VWS V14.01,2013-04-28 13:37:00,
2013-04-28 09:38:00,56.2,43.4,30.15,SE,130,2.0,4.0,62,0.00,,---,0.00,VWS V14.01,2013-04-28 13:38:00,
2013-04-28 09:40:00,56.2,43.4,30.15,South,175,5.0,6.0,62,0.00,,---,0.00,VWS V14.01,2013-04-28 13:40:00,
2013-04-28 09:43:00,56.2,43.4,30.15,SE,138,4.0,8.0,62,0.00,,---,0.00,VWS V14.01,2013-04-28 13:43:00,
2013-04-28 09:44:00,56.2,43.0,30.15,SE,138,0.0,4.0,61,0.00,,---,0.00,VWS V14.01,2013-04-28 13:44:00,
2013-04-28 09:45:00,56.2,43.0,30.15,SE,128,4.0,5.0,61,0.00,,---,0.00,VWS V14.01,2013-04-28 13:45:00,
2013-04-28 09:48:00,56.2,43.0,30.16,SE,136,2.0,6.0,61,0.00,,---,0.00,VWS V14.01,2013-04-28 13:48:00,
2013-04-28 09:49:00,56.2,43.0,30.16,South,180,5.0,6.0,61,0.00,,---,0.00,VWS V14.01,2013-04-28 13:49:00,
2013-04-28 09:50:00,56.2,42.5,30.16,SE,134,10.0,10.0,60,0.00,,---,0.00,VWS V14.01,2013-04-28 13:50:00,
2013-04-28 09:53:00,56.2,42.5,30.16,ESE,115,7.0,7.0,60,0.00,,---,0.00,VWS V14.01,2013-04-28 13:53:00,
2013-04-28 09:54:00,56.2,42.5,30.16,SE,135,4.0,6.0,60,0.00,,---,0.00,VWS V14.01,2013-04-28 13:54:00,
2013-04-28 09:55:00,56.0,42.3,30.16,ESE,121,4.0,5.0,60,0.00,,---,0.00,VWS V14.01,2013-04-28 13:55:00,
2013-04-28 09:58:00,56.0,41.9,30.16,SSE,167,3.0,3.0,59,0.00,,---,0.00,VWS V14.01,2013-04-28 13:58:00,
2013-04-28 09:59:00,56.0,42.3,30.16,SSE,151,1.0,6.0,60,0.00,,---,0.00,VWS V14.01,2013-04-28 13:59:00,
2013-04-28 10:00:00,56.0,42.3,30.16,SE,126,5.0,13.0,60,0.00,,---,0.00,VWS V14.01,2013-04-28 14:00:00,
2013-04-28 10:03:00,56.0,42.3,30.16,SSE,155,4.0,5.0,60,0.00,,---,0.00,VWS V14.01,2013-04-28 14:03:00,
2013-04-28 10:04:00,56.0,42.3,30.16,SE,135,12.0,12.0,60,0.00,,---,0.00,VWS V14.01,2013-04-28 14:04:00,
2013-04-28 10:05:00,55.9,42.2,30.16,East,80,1.0,1.0,60,0.00,,---,0.00,VWS V14.01,2013-04-28 14:05:00,
2013-04-28 10:08:00,55.9,42.2,30.16,SSE,161,2.0,2.0,60,0.00,,---,0.00,VWS V14.01,2013-04-28 14:08:00,
2013-04-28 10:09:00,55.9,42.7,30.16,SE,140,3.0,9.0,61,0.00,,---,0.00,VWS V14.01,2013-04-28 14:09:00,
2013-04-28 10:10:00,55.9,42.7,30.16,South,178,8.0,8.0,61,0.00,,---,0.00,VWS V14.01,2013-04-28 14:10:00,
2013-04-28 10:13:00,55.9,42.2,30.16,ESE,121,4.0,11.0,60,0.00,,---,0.00,VWS V14.01,2013-04-28 14:13:00,
2013-04-28 10:14:00,55.9,42.2,30.16,SE,146,10.0,10.0,60,0.00,,---,0.00,VWS V14.01,2013-04-28 14:14:00,
2013-04-28 10:15:00,55.9,42.2,30.16,SE,146,1.0,5.0,60,0.00,,---,0.00,VWS V14.01,2013-04-28 14:15:00,
2013-04-28 10:18:00,55.9,42.2,30.16,SSE,147,7.0,11.0,60,0.00,,---,0.00,VWS V14.01,2013-04-28 14:18:00,
2013-04-28 10:19:00,55.9,42.2,30.16,SE,131,5.0,7.0,60,0.00,,---,0.00,VWS V14.01,2013-04-28 14:19:00,
2013-04-28 10:20:00,55.9,42.2,30.16,SSE,168,4.0,7.0,60,0.00,,---,0.00,VWS V14.01,2013-04-28 14:20:00,
2013-04-28 10:23:00,55.9,42.2,30.16,SSE,154,3.0,3.0,60,0.00,,---,0.00,VWS V14.01,2013-04-28 14:23:00,
2013-04-28 10:24:00,55.9,42.7,30.16,SSE,168,2.0,5.0,61,0.00,,---,0.00,VWS V14.01,2013-04-28 14:24:00,
2013-04-28 10:25:00,55.9,42.2,30.16,ESE,109,7.0,10.0,60,0.00,,---,0.00,VWS V14.01,2013-04-28 14:25:00,
2013-04-28 10:28:00,55.9,42.2,30.16,South,178,9.0,9.0,60,0.00,,---,0.00,VWS V14.01,2013-04-28 14:28:00,
2013-04-28 10:29:00,55.9,42.2,30.16,South,170,4.0,9.0,60,0.00,,---,0.00,VWS V14.01,2013-04-28 14:29:00,
2013-04-28 10:30:00,55.9,42.2,30.16,SSE,161,5.0,9.0,60,0.00,,---,0.00,VWS V14.01,2013-04-28 14:30:00,
2013-04-28 10:33:00,55.9,42.2,30.16,ESE,110,1.0,11.0,60,0.00,,---,0.00,VWS V14.01,2013-04-28 14:33:00,
2013-04-28 10:34:00,55.9,42.2,30.16,ESE,119,5.0,11.0,60,0.00,,---,0.00,VWS V14.01,2013-04-28 14:34:00,
2013-04-28 10:35:00,55.9,42.2,30.16,SE,134,6.0,9.0,60,0.00,,---,0.00,VWS V14.01,2013-04-28 14:35:00,
2013-04-28 10:38:00,55.9,42.2,30.16,SE,136,2.0,7.0,60,0.00,,---,0.00,VWS V14.01,2013-04-28 14:38:00,
2013-04-28 10:39:00,55.9,42.2,30.16,SE,136,0.0,7.0,60,0.00,,---,0.00,VWS V14.01,2013-04-28 14:39:00,
2013-04-28 10:41:00,55.9,42.7,30.16,ESE,118,2.0,9.0,61,0.00,,---,0.00,VWS V14.01,2013-04-28 14:41:00,
2013-04-28 10:43:00,55.9,42.7,30.16,ESE,117,5.0,6.0,61,0.00,,---,0.00,VWS V14.01,2013-04-28 14:43:00,
2013-04-28 10:44:00,55.9,42.2,30.16,ESE,117,1.0,3.0,60,0.00,,---,0.00,VWS V14.01,2013-04-28 14:44:00,
2013-04-28 10:46:00,55.9,42.7,30.16,SSE,157,1.0,2.0,61,0.00,,---,0.00,VWS V14.01,2013-04-28 14:46:00,
2013-04-28 10:49:00,55.9,42.7,30.17,SSE,154,3.0,11.0,61,0.00,,---,0.00,VWS V14.01,2013-04-28 14:49:00,
2013-04-28 10:50:00,55.9,42.2,30.17,SE,141,12.0,12.0,60,0.00,,---,0.00,VWS V14.01,2013-04-28 14:50:00,
2013-04-28 10:51:00,55.9,42.2,30.17,SSE,153,3.0,13.0,60,0.00,,---,0.00,VWS V14.01,2013-04-28 14:51:00,
2013-04-28 10:54:00,55.9,42.7,30.17,ESE,105,0.0,7.0,61,0.00,,---,0.00,VWS V14.01,2013-04-28 14:54:00,
2013-04-28 10:55:00,55.9,42.7,30.17,SSE,159,4.0,6.0,61,0.00,,---,0.00,VWS V14.01,2013-04-28 14:55:00,
2013-04-28 10:56:00,55.9,42.2,30.17,South,172,1.0,3.0,60,0.00,,---,0.00,VWS V14.01,2013-04-28 14:56:00,
2013-04-28 10:59:00,55.9,42.7,30.17,SE,138,1.0,1.0,61,0.00,,---,0.00,VWS V14.01,2013-04-28 14:59:00,
2013-04-28 11:00:00,55.9,42.7,30.17,SSE,153,0.0,0.0,61,0.00,,---,0.00,VWS V14.01,2013-04-28 15:00:00,
2013-04-28 11:01:00,56.0,43.2,30.17,SSE,153,1.0,1.0,62,0.00,,---,0.00,VWS V14.01,2013-04-28 15:01:00,
2013-04-28 11:04:00,56.0,43.2,30.17,SE,128,0.0,2.0,62,0.00,,---,0.00,VWS V14.01,2013-04-28 15:04:00,
2013-04-28 11:05:00,56.0,43.2,30.17,SE,128,0.0,4.0,62,0.00,,---,0.00,VWS V14.01,2013-04-28 15:05:00,
2013-04-28 11:06:00,56.0,43.2,30.17,SE,130,1.0,2.0,62,0.00,,---,0.00,VWS V14.01,2013-04-28 15:06:00,
2013-04-28 11:09:00,56.2,43.4,30.17,South,182,5.0,8.0,62,0.00,,---,0.00,VWS V14.01,2013-04-28 15:09:00,
2013-04-28 11:10:00,56.2,43.4,30.17,SSE,148,4.0,9.0,62,0.00,,---,0.00,VWS V14.01,2013-04-28 15:10:00,
2013-04-28 11:11:00,56.2,43.4,30.17,South,190,2.0,5.0,62,0.00,,---,0.00,VWS V14.01,2013-04-28 15:11:00,
2013-04-28 11:14:00,56.2,43.4,30.17,South,190,2.0,2.0,62,0.00,,---,0.00,VWS V14.01,2013-04-28 15:14:00,
2013-04-28 11:15:00,56.2,43.4,30.17,South,190,1.0,2.0,62,0.00,,---,0.00,VWS V14.01,2013-04-28 15:15:00,
2013-04-28 11:16:00,56.3,43.9,30.17,South,190,0.0,2.0,63,0.00,,---,0.00,VWS V14.01,2013-04-28 15:16:00,
2013-04-28 11:19:00,56.3,43.9,30.18,South,190,2.0,2.0,63,0.00,,---,0.00,VWS V14.01,2013-04-28 15:19:00,
2013-04-28 11:20:00,56.3,43.9,30.18,South,190,0.0,0.0,63,0.00,,---,0.00,VWS V14.01,2013-04-28 15:20:00,
2013-04-28 11:21:00,56.3,43.9,30.18,South,190,0.0,1.0,63,0.00,,---,0.00,VWS V14.01,2013-04-28 15:21:00,
2013-04-28 11:24:00,56.5,44.5,30.18,ESE,108,7.0,11.0,64,0.00,,---,0.00,VWS V14.01,2013-04-28 15:24:00,
2013-04-28 11:25:00,56.5,44.1,30.18,SSE,155,3.0,5.0,63,0.00,,---,0.00,VWS V14.01,2013-04-28 15:25:00,
2013-04-28 11:26:00,56.5,44.1,30.18,SSE,147,2.0,4.0,63,0.00,,---,0.00,VWS V14.01,2013-04-28 15:26:00,
2013-04-28 11:29:00,56.5,44.5,30.18,SSE,147,0.0,1.0,64,0.00,,---,0.00,VWS V14.01,2013-04-28 15:29:00,
2013-04-28 11:30:00,56.5,44.9,30.18,SSE,147,0.0,0.0,65,0.00,,---,0.00,VWS V14.01,2013-04-28 15:30:00,
2013-04-28 11:31:00,56.6,45.0,30.18,SSE,147,0.0,0.0,65,0.00,,---,0.00,VWS V14.01,2013-04-28 15:31:00,
2013-04-28 11:34:00,56.6,45.8,30.18,SSE,147,1.0,3.0,67,0.00,,---,0.00,VWS V14.01,2013-04-28 15:34:00,
2013-04-28 11:35:00,56.6,45.8,30.18,SSE,147,2.0,3.0,67,0.00,,---,0.00,VWS V14.01,2013-04-28 15:35:00,
2013-04-28 11:36:00,56.6,45.8,30.18,East,98,2.0,6.0,67,0.00,,---,0.00,VWS V14.01,2013-04-28 15:36:00,
2013-04-28 11:39:00,56.5,46.1,30.18,SSE,157,5.0,7.0,68,0.00,,---,0.00,VWS V14.01,2013-04-28 15:39:00,
2013-04-28 11:40:00,56.5,46.1,30.18,SSE,153,3.0,3.0,68,0.00,,---,0.00,VWS V14.01,2013-04-28 15:40:00,
2013-04-28 11:41:00,56.3,46.3,30.18,SSE,157,4.0,5.0,69,0.00,,---,0.00,VWS V14.01,2013-04-28 15:41:00,
2013-04-28 11:44:00,56.3,46.7,30.18,ESE,107,2.0,4.0,70,0.00,,---,0.00,VWS V14.01,2013-04-28 15:44:00,
2013-04-28 11:45:00,56.2,46.9,30.18,SE,130,2.0,2.0,71,0.00,,---,0.00,VWS V14.01,2013-04-28 15:45:00,
2013-04-28 11:46:00,56.0,47.1,30.18,SSE,160,7.0,7.0,72,0.01,,---,0.01,VWS V14.01,2013-04-28 15:46:00,
2013-04-28 11:49:00,55.9,47.0,30.18,SE,137,3.0,4.0,72,0.01,,---,0.01,VWS V14.01,2013-04-28 15:49:00,
2013-04-28 11:50:00,55.9,47.4,30.18,SE,146,4.0,6.0,73,0.01,,---,0.01,VWS V14.01,2013-04-28 15:50:00,
2013-04-28 11:52:00,55.7,47.2,30.18,SE,126,6.0,6.0,73,0.01,,---,0.01,VWS V14.01,2013-04-28 15:52:00,
2013-04-28 11:54:00,55.4,47.3,30.18,SE,138,6.0,6.0,74,0.01,,---,0.01,VWS V14.01,2013-04-28 15:54:00,
2013-04-28 11:55:00,55.4,47.3,30.18,SE,146,7.0,7.0,74,0.01,,---,0.01,VWS V14.01,2013-04-28 15:55:00,
2013-04-28 11:57:00,55.3,47.5,30.18,SSE,158,4.0,4.0,75,0.01,,---,0.01,VWS V14.01,2013-04-28 15:57:00,
2013-04-28 11:59:00,55.1,47.7,30.18,SE,128,2.0,4.0,76,0.01,,---,0.01,VWS V14.01,2013-04-28 15:59:00,
2013-04-28 12:00:00,55.0,47.6,30.18,SE,144,0.0,5.0,76,0.01,,---,0.01,VWS V14.01,2013-04-28 16:00:00,
2013-04-28 12:02:00,54.8,47.7,30.18,East,94,4.0,5.0,77,0.01,,---,0.01,VWS V14.01,2013-04-28 16:02:00,
2013-04-28 12:04:00,54.7,47.6,30.18,SE,128,4.0,7.0,77,0.01,,---,0.01,VWS V14.01,2013-04-28 16:04:00,
2013-04-28 12:05:00,54.7,47.6,30.18,SE,132,1.0,5.0,77,0.01,,---,0.01,VWS V14.01,2013-04-28 16:05:00,
2013-04-28 12:06:00,54.5,47.5,30.18,SE,133,5.0,5.0,77,0.01,,---,0.01,VWS V14.01,2013-04-28 16:06:00,
2013-04-28 12:07:00,54.5,47.8,30.18,ESE,105,3.0,5.0,78,0.01,,---,0.01,VWS V14.01,2013-04-28 16:07:00,
2013-04-28 12:09:00,54.4,47.7,30.18,SSE,164,2.0,11.0,78,0.01,,---,0.01,VWS V14.01,2013-04-28 16:09:00,
2013-04-28 12:10:00,54.4,48.7,30.18,SSE,159,6.0,9.0,81,0.01,,---,0.01,VWS V14.01,2013-04-28 16:10:00,
2013-04-28 12:11:00,54.2,47.5,30.18,SSE,148,0.0,2.0,78,0.01,,---,0.01,VWS V14.01,2013-04-28 16:11:00,
2013-04-28 12:12:00,54.2,47.8,30.18,SE,136,7.0,7.0,79,0.01,,---,0.01,VWS V14.01,2013-04-28 16:12:00,
2013-04-28 12:14:00,54.1,47.7,30.18,ESE,117,6.0,7.0,79,0.01,,---,0.01,VWS V14.01,2013-04-28 16:14:00,
2013-04-28 12:15:00,53.9,47.5,30.18,East,84,6.0,9.0,79,0.01,,---,0.01,VWS V14.01,2013-04-28 16:15:00,
2013-04-28 12:16:00,53.9,47.5,30.18,East,98,4.0,5.0,79,0.01,,---,0.01,VWS V14.01,2013-04-28 16:16:00,
2013-04-28 12:17:00,53.9,47.5,30.18,SE,131,6.0,8.0,79,0.02,,---,0.02,VWS V14.01,2013-04-28 16:17:00,
2013-04-28 12:19:00,53.8,47.8,30.18,SE,135,3.0,6.0,80,0.02,,---,0.02,VWS V14.01,2013-04-28 16:19:00,
2013-04-28 12:21:00,53.8,47.8,30.18,SE,146,3.0,7.0,80,0.02,,---,0.02,VWS V14.01,2013-04-28 16:21:00,
2013-04-28 12:22:00,53.6,47.9,30.18,ESE,119,3.0,5.0,81,0.02,,---,0.02,VWS V14.01,2013-04-28 16:22:00,
2013-04-28 12:25:00,53.6,47.9,30.18,ESE,109,5.0,11.0,81,0.02,,---,0.02,VWS V14.01,2013-04-28 16:25:00,
2013-04-28 12:26:00,53.5,47.8,30.18,SE,127,6.0,11.0,81,0.02,,---,0.02,VWS V14.01,2013-04-28 16:26:00,
2013-04-28 12:27:00,53.5,47.8,30.18,East,90,2.0,13.0,81,0.02,,---,0.02,VWS V14.01,2013-04-28 16:27:00,
2013-04-28 12:30:00,53.3,47.6,30.18,ESE,114,4.0,4.0,81,0.02,,---,0.02,VWS V14.01,2013-04-28 16:30:00,
2013-04-28 12:31:00,53.3,47.6,30.18,ESE,121,4.0,5.0,81,0.02,,---,0.02,VWS V14.01,2013-04-28 16:31:00,
2013-04-28 12:32:00,53.2,47.5,30.18,SE,132,7.0,10.0,81,0.02,,---,0.02,VWS V14.01,2013-04-28 16:32:00,
2013-04-28 12:35:00,53.2,47.9,30.18,SE,146,4.0,4.0,82,0.02,,---,0.02,VWS V14.01,2013-04-28 16:35:00,
2013-04-28 12:36:00,53.2,47.9,30.18,SE,128,6.0,10.0,82,0.02,,---,0.02,VWS V14.01,2013-04-28 16:36:00,
2013-04-28 12:37:00,53.1,47.8,30.18,SE,146,4.0,7.0,82,0.02,,---,0.02,VWS V14.01,2013-04-28 16:37:00,
2013-04-28 12:40:00,53.1,47.8,30.18,SSE,165,5.0,7.0,82,0.02,,---,0.02,VWS V14.01,2013-04-28 16:40:00,
2013-04-28 12:41:00,53.1,47.8,30.18,SSE,165,4.0,4.0,82,0.02,,---,0.02,VWS V14.01,2013-04-28 16:41:00,
2013-04-28 12:42:00,53.1,47.8,30.18,SE,128,3.0,5.0,82,0.02,,---,0.02,VWS V14.01,2013-04-28 16:42:00,
2013-04-28 12:45:00,53.1,48.1,30.18,SE,126,5.0,6.0,83,0.02,,---,0.02,VWS V14.01,2013-04-28 16:45:00,
2013-04-28 12:46:00,53.1,48.1,30.18,ESE,116,6.0,7.0,83,0.02,,---,0.02,VWS V14.01,2013-04-28 16:46:00,
2013-04-28 12:47:00,52.9,47.9,30.18,ESE,112,9.0,11.0,83,0.01,,---,0.02,VWS V14.01,2013-04-28 16:47:00,
2013-04-28 12:50:00,52.9,47.9,30.18,SE,140,4.0,6.0,83,0.01,,---,0.02,VWS V14.01,2013-04-28 16:50:00,
2013-04-28 12:51:00,52.9,48.2,30.18,SE,138,3.0,3.0,84,0.01,,---,0.02,VWS V14.01,2013-04-28 16:51:00,
2013-04-28 12:52:00,52.9,48.2,30.18,ESE,109,3.0,8.0,84,0.01,,---,0.02,VWS V14.01,2013-04-28 16:52:00,
2013-04-28 12:55:00,52.8,48.1,30.18,South,184,4.0,6.0,84,0.01,,---,0.02,VWS V14.01,2013-04-28 16:55:00,
2013-04-28 12:56:00,52.8,48.1,30.18,SE,140,2.0,6.0,84,0.02,,---,0.03,VWS V14.01,2013-04-28 16:56:00,
2013-04-28 12:57:00,52.8,48.1,30.18,SE,143,6.0,12.0,84,0.02,,---,0.03,VWS V14.01,2013-04-28 16:57:00,
2013-04-28 13:00:00,52.6,47.9,30.18,SE,137,5.0,12.0,84,0.02,,---,0.03,VWS V14.01,2013-04-28 17:00:00,
2013-04-28 13:01:00,52.6,47.9,30.18,SE,133,4.0,4.0,84,0.02,,---,0.03,VWS V14.01,2013-04-28 17:01:00,
2013-04-28 13:02:00,52.6,47.9,30.17,ESE,120,6.0,6.0,84,0.02,,---,0.03,VWS V14.01,2013-04-28 17:02:00,
2013-04-28 13:05:00,52.6,48.2,30.17,ESE,112,4.0,5.0,85,0.02,,---,0.03,VWS V14.01,2013-04-28 17:05:00,
2013-04-28 13:06:00,52.6,48.2,30.17,SSE,155,2.0,5.0,85,0.02,,---,0.03,VWS V14.01,2013-04-28 17:06:00,
2013-04-28 13:07:00,52.6,48.2,30.17,SE,136,5.0,5.0,85,0.02,,---,0.03,VWS V14.01,2013-04-28 17:07:00,
2013-04-28 13:08:00,52.6,48.2,30.17,SE,142,3.0,11.0,85,0.02,,---,0.03,VWS V14.01,2013-04-28 17:08:00,
2013-04-28 13:11:00,52.5,48.1,30.17,SSE,156,13.0,13.0,85,0.02,,---,0.03,VWS V14.01,2013-04-28 17:11:00,
2013-04-28 13:12:00,52.5,48.1,30.17,SE,128,7.0,8.0,85,0.02,,---,0.03,VWS V14.01,2013-04-28 17:12:00,
2013-04-28 13:13:00,52.5,48.1,30.17,SE,146,1.0,10.0,85,0.02,,---,0.03,VWS V14.01,2013-04-28 17:13:00,
2013-04-28 13:16:00,52.3,47.9,30.17,East,81,6.0,10.0,85,0.02,,---,0.03,VWS V14.01,2013-04-28 17:16:00,
2013-04-28 13:17:00,52.3,47.9,30.17,SE,142,3.0,4.0,85,0.01,,---,0.03,VWS V14.01,2013-04-28 17:17:00,
2013-04-28 13:18:00,52.3,48.2,30.17,SE,146,3.0,5.0,86,0.01,,---,0.03,VWS V14.01,2013-04-28 17:18:00,
2013-04-28 13:21:00,52.2,48.2,30.17,ESE,104,3.0,10.0,86,0.01,,---,0.03,VWS V14.01,2013-04-28 17:21:00,
2013-04-28 13:22:00,52.2,48.2,30.17,ESE,112,14.0,14.0,86,0.02,,---,0.04,VWS V14.01,2013-04-28 17:22:00,
2013-04-28 13:23:00,52.2,48.2,30.17,SSE,150,12.0,16.0,86,0.02,,---,0.04,VWS V14.01,2013-04-28 17:23:00,
2013-04-28 13:26:00,52.0,48.0,30.17,East,97,9.0,12.0,86,0.02,,---,0.04,VWS V14.01,2013-04-28 17:26:00,
2013-04-28 13:27:00,52.0,48.0,30.17,South,178,5.0,13.0,86,0.02,,---,0.04,VWS V14.01,2013-04-28 17:27:00,
2013-04-28 13:28:00,52.0,48.0,30.17,SE,126,8.0,13.0,86,0.02,,---,0.04,VWS V14.01,2013-04-28 17:28:00,
2013-04-28 13:31:00,51.9,47.8,30.17,SE,130,6.0,9.0,86,0.02,,---,0.04,VWS V14.01,2013-04-28 17:31:00,
2013-04-28 13:32:00,51.9,47.8,30.17,SE,146,0.0,1.0,86,0.02,,---,0.04,VWS V14.01,2013-04-28 17:32:00,
2013-04-28 13:33:00,51.9,47.8,30.17,ESE,120,4.0,4.0,86,0.02,,---,0.04,VWS V14.01,2013-04-28 17:33:00,
2013-04-28 13:36:00,51.9,48.2,30.17,East,97,1.0,7.0,87,0.03,,---,0.05,VWS V14.01,2013-04-28 17:36:00,
2013-04-28 13:37:00,51.9,48.2,30.17,SE,126,3.0,6.0,87,0.03,,---,0.05,VWS V14.01,2013-04-28 17:37:00,
2013-04-28 13:38:00,51.9,48.2,30.17,SSE,165,7.0,11.0,87,0.03,,---,0.05,VWS V14.01,2013-04-28 17:38:00,
2013-04-28 13:41:00,51.9,48.2,30.17,ESE,113,10.0,10.0,87,0.03,,---,0.05,VWS V14.01,2013-04-28 17:41:00,
2013-04-28 13:42:00,51.7,48.0,30.17,SE,131,4.0,7.0,87,0.03,,---,0.05,VWS V14.01,2013-04-28 17:42:00,
2013-04-28 13:43:00,51.7,48.0,30.17,SSE,150,4.0,6.0,87,0.03,,---,0.05,VWS V14.01,2013-04-28 17:43:00,
2013-04-28 13:46:00,51.7,48.6,30.17,SSE,159,4.0,9.0,89,0.04,,---,0.06,VWS V14.01,2013-04-28 17:46:00,
2013-04-28 13:47:00,51.7,48.3,30.17,SE,132,7.0,8.0,88,0.04,,---,0.06,VWS V14.01,2013-04-28 17:47:00,
2013-04-28 13:48:00,51.7,48.3,30.17,SE,138,5.0,5.0,88,0.04,,---,0.06,VWS V14.01,2013-04-28 17:48:00,
2013-04-28 13:51:00,51.7,48.3,30.17,SSE,147,5.0,13.0,88,0.04,,---,0.06,VWS V14.01,2013-04-28 17:51:00,
2013-04-28 13:52:00,51.7,48.3,30.17,SSE,164,4.0,4.0,88,0.04,,---,0.06,VWS V14.01,2013-04-28 17:52:00,
2013-04-28 13:53:00,51.6,48.2,30.17,SSE,159,5.0,13.0,88,0.05,,---,0.07,VWS V14.01,2013-04-28 17:53:00,
2013-04-28 13:56:00,51.6,48.5,30.17,SSE,153,3.0,3.0,89,0.04,,---,0.07,VWS V14.01,2013-04-28 17:56:00,
2013-04-28 13:57:00,51.6,48.5,30.17,ESE,111,1.0,3.0,89,0.04,,---,0.07,VWS V14.01,2013-04-28 17:57:00,
2013-04-28 13:58:00,51.6,48.5,30.17,SSE,168,7.0,9.0,89,0.04,,---,0.07,VWS V14.01,2013-04-28 17:58:00,
2013-04-28 14:01:00,51.6,48.5,30.17,ESE,107,1.0,7.0,89,0.04,,---,0.07,VWS V14.01,2013-04-28 18:01:00,
2013-04-28 14:02:00,51.6,48.5,30.17,SE,144,5.0,7.0,89,0.04,,---,0.07,VWS V14.01,2013-04-28 18:02:00,
2013-04-28 14:03:00,51.6,48.5,30.17,SSE,153,4.0,8.0,89,0.04,,---,0.07,VWS V14.01,2013-04-28 18:03:00,
2013-04-28 14:07:00,51.6,48.5,30.17,SE,138,5.0,5.0,89,0.04,,---,0.07,VWS V14.01,2013-04-28 18:07:00,
2013-04-28 14:08:00,51.6,48.5,30.17,SE,126,6.0,11.0,89,0.04,,---,0.07,VWS V14.01,2013-04-28 18:08:00,
2013-04-28 14:12:00,51.6,48.8,30.17,East,87,10.0,12.0,90,0.05,,---,0.08,VWS V14.01,2013-04-28 18:12:00,
2013-04-28 14:13:00,51.4,48.6,30.17,SE,144,14.0,17.0,90,0.05,,---,0.08,VWS V14.01,2013-04-28 18:13:00,
2013-04-28 14:17:00,51.4,48.6,30.18,ESE,121,9.0,12.0,90,0.05,,---,0.08,VWS V14.01,2013-04-28 18:17:00,
2013-04-28 14:18:00,51.4,48.6,30.18,SSW,198,4.0,6.0,90,0.05,,---,0.08,VWS V14.01,2013-04-28 18:18:00,
2013-04-28 14:22:00,51.4,48.6,30.18,SSE,155,6.0,9.0,90,0.04,,---,0.08,VWS V14.01,2013-04-28 18:22:00,
2013-04-28 14:23:00,51.4,48.6,30.18,ESE,121,11.0,12.0,90,0.04,,---,0.08,VWS V14.01,2013-04-28 18:23:00,
2013-04-28 14:27:00,51.4,48.6,30.18,SE,144,12.0,12.0,90,0.04,,---,0.08,VWS V14.01,2013-04-28 18:27:00,
2013-04-28 14:28:00,51.4,48.6,30.18,SE,125,10.0,12.0,90,0.04,,---,0.08,VWS V14.01,2013-04-28 18:28:00,
2013-04-28 14:32:00,51.3,48.5,30.17,SE,146,11.0,13.0,90,0.04,,---,0.08,VWS V14.01,2013-04-28 18:32:00,
2013-04-28 14:33:00,51.3,48.5,30.17,ENE,77,4.0,4.0,90,0.04,,---,0.08,VWS V14.01,2013-04-28 18:33:00,
2013-04-28 14:37:00,51.3,48.5,30.17,SSE,149,13.0,13.0,90,0.03,,---,0.08,VWS V14.01,2013-04-28 18:37:00,
2013-04-28 14:38:00,51.3,48.5,30.17,SE,144,12.0,12.0,90,0.03,,---,0.08,VWS V14.01,2013-04-28 18:38:00,
2013-04-28 14:39:00,51.3,48.5,30.17,South,177,7.0,13.0,90,0.03,,---,0.08,VWS V14.01,2013-04-28 18:39:00,
2013-04-28 14:42:00,51.3,48.5,30.17,SE,140,7.0,11.0,90,0.03,,---,0.08,VWS V14.01,2013-04-28 18:42:00,
2013-04-28 14:43:00,51.3,48.5,30.17,SSE,154,5.0,11.0,90,0.03,,---,0.08,VWS V14.01,2013-04-28 18:43:00,
2013-04-28 14:44:00,51.3,48.8,30.17,SSE,153,4.0,8.0,91,0.03,,---,0.08,VWS V14.01,2013-04-28 18:44:00,
2013-04-28 14:47:00,51.4,48.9,30.16,ESE,121,1.0,9.0,91,0.02,,---,0.08,VWS V14.01,2013-04-28 18:47:00,
2013-04-28 14:48:00,51.4,48.9,30.16,SE,134,2.0,5.0,91,0.02,,---,0.08,VWS V14.01,2013-04-28 18:48:00,
2013-04-28 14:49:00,51.4,48.9,30.16,East,101,12.0,12.0,91,0.02,,---,0.08,VWS V14.01,2013-04-28 18:49:00,
2013-04-28 14:52:00,51.4,48.9,30.16,ESE,123,3.0,10.0,91,0.02,,---,0.08,VWS V14.01,2013-04-28 18:52:00,
2013-04-28 14:53:00,51.4,48.9,30.16,SE,131,3.0,5.0,91,0.01,,---,0.08,VWS V14.01,2013-04-28 18:53:00,
2013-04-28 14:54:00,51.4,48.9,30.16,ESE,114,10.0,10.0,91,0.02,,---,0.09,VWS V14.01,2013-04-28 18:54:00,
2013-04-28 14:57:00,51.4,48.9,30.16,SE,139,2.0,6.0,91,0.02,,---,0.09,VWS V14.01,2013-04-28 18:57:00,
2013-04-28 14:58:00,51.4,48.9,30.16,SE,139,3.0,3.0,91,0.02,,---,0.09,VWS V14.01,2013-04-28 18:58:00,
2013-04-28 14:59:00,51.4,48.9,30.16,SE,136,8.0,9.0,91,0.02,,---,0.09,VWS V14.01,2013-04-28 18:59:00,
2013-04-28 15:02:00,51.6,49.1,30.16,SSE,167,12.0,12.0,91,0.02,,---,0.09,VWS V14.01,2013-04-28 19:02:00,
2013-04-28 15:03:00,51.6,49.1,30.16,SE,140,4.0,7.0,91,0.02,,---,0.09,VWS V14.01,2013-04-28 19:03:00,
2013-04-28 15:04:00,51.4,48.9,30.16,SSE,159,4.0,7.0,91,0.02,,---,0.09,VWS V14.01,2013-04-28 19:04:00,
2013-04-28 15:07:00,51.4,48.9,30.16,SE,128,5.0,7.0,91,0.03,,---,0.10,VWS V14.01,2013-04-28 19:07:00,
2013-04-28 15:08:00,51.4,48.9,30.16,SW,214,2.0,8.0,91,0.03,,---,0.10,VWS V14.01,2013-04-28 19:08:00,
2013-04-28 15:09:00,51.4,48.9,30.16,SSW,211,0.0,8.0,91,0.03,,---,0.10,VWS V14.01,2013-04-28 19:09:00,
2013-04-28 15:13:00,51.6,49.4,30.16,SE,136,12.0,12.0,92,0.02,,---,0.10,VWS V14.01,2013-04-28 19:13:00,
2013-04-28 15:14:00,51.6,49.4,30.16,ESE,116,5.0,14.0,92,0.02,,---,0.10,VWS V14.01,2013-04-28 19:14:00,
2013-04-28 15:18:00,51.6,49.4,30.15,SSE,156,5.0,7.0,92,0.02,,---,0.10,VWS V14.01,2013-04-28 19:18:00,
2013-04-28 15:19:00,51.6,49.4,30.15,South,179,2.0,7.0,92,0.02,,---,0.10,VWS V14.01,2013-04-28 19:19:00,
2013-04-28 15:23:00,51.6,49.4,30.15,SE,130,4.0,6.0,92,0.02,,---,0.10,VWS V14.01,2013-04-28 19:23:00,
2013-04-28 15:24:00,51.6,49.4,30.15,ESE,123,4.0,7.0,92,0.02,,---,0.10,VWS V14.01,2013-04-28 19:24:00,
2013-04-28 15:25:00,51.6,49.4,30.15,ESE,110,3.0,5.0,92,0.02,,---,0.10,VWS V14.01,2013-04-28 19:25:00,
2013-04-28 15:28:00,51.4,48.9,30.15,SE,126,3.0,4.0,91,0.02,,---,0.10,VWS V14.01,2013-04-28 19:28:00,
2013-04-28 15:29:00,51.4,49.2,30.15,ESE,120,8.0,11.0,92,0.02,,---,0.10,VWS V14.01,2013-04-28 19:29:00,
2013-04-28 15:30:00,51.4,48.9,30.15,SE,144,4.0,11.0,91,0.02,,---,0.10,VWS V14.01,2013-04-28 19:30:00,
2013-04-28 15:33:00,51.3,48.8,30.14,East,98,5.0,14.0,91,0.02,,---,0.10,VWS V14.01,2013-04-28 19:33:00,
2013-04-28 15:34:00,51.3,48.8,30.14,SE,132,6.0,14.0,91,0.02,,---,0.10,VWS V14.01,2013-04-28 19:34:00,
2013-04-28 15:36:00,51.1,48.6,30.14,East,100,4.0,11.0,91,0.02,,---,0.10,VWS V14.01,2013-04-28 19:36:00,
2013-04-28 15:38:00,51.1,48.6,30.14,SSE,157,4.0,11.0,91,0.02,,---,0.10,VWS V14.01,2013-04-28 19:38:00,
2013-04-28 15:39:00,51.1,48.6,30.14,SE,146,3.0,11.0,91,0.02,,---,0.10,VWS V14.01,2013-04-28 19:39:00,
2013-04-28 15:41:00,51.0,48.5,30.14,SSE,157,1.0,6.0,91,0.03,,---,0.11,VWS V14.01,2013-04-28 19:41:00,
2013-04-28 15:43:00,51.0,48.5,30.14,SE,134,2.0,8.0,91,0.03,,---,0.11,VWS V14.01,2013-04-28 19:43:00,
2013-04-28 15:44:00,50.8,48.3,30.14,SE,127,3.0,3.0,91,0.03,,---,0.11,VWS V14.01,2013-04-28 19:44:00,
2013-04-28 15:46:00,50.8,48.3,30.14,ESE,104,5.0,5.0,91,0.03,,---,0.11,VWS V14.01,2013-04-28 19:46:00,
2013-04-28 15:48:00,50.8,48.3,30.14,ESE,109,4.0,5.0,91,0.03,,---,0.11,VWS V14.01,2013-04-28 19:48:00,
2013-04-28 15:49:00,50.8,48.3,30.14,SE,142,4.0,11.0,91,0.04,,---,0.12,VWS V14.01,2013-04-28 19:49:00,
2013-04-28 15:55:00,50.7,48.2,30.14,SSE,149,5.0,5.0,91,0.03,,---,0.12,VWS V14.01,2013-04-28 19:55:00,
2013-04-28 15:56:00,50.7,48.2,30.14,SSE,162,5.0,5.0,91,0.03,,---,0.12,VWS V14.01,2013-04-28 19:56:00,
2013-04-28 16:00:00,50.5,48.0,30.14,ESE,107,1.0,8.0,91,0.03,,---,0.12,VWS V14.01,2013-04-28 20:00:00,
2013-04-28 16:04:00,50.5,48.0,30.13,South,171,7.0,7.0,91,0.03,,---,0.12,VWS V14.01,2013-04-28 20:04:00,
2013-04-28 16:05:00,50.5,48.0,30.13,South,171,3.0,3.0,91,0.03,,---,0.12,VWS V14.01,2013-04-28 20:05:00,
2013-04-28 16:09:00,50.5,48.0,30.13,SE,144,4.0,10.0,91,0.02,,---,0.12,VWS V14.01,2013-04-28 20:09:00,
2013-04-28 16:10:00,50.5,48.0,30.13,SSE,168,10.0,11.0,91,0.02,,---,0.12,VWS V14.01,2013-04-28 20:10:00,
2013-04-28 16:11:00,50.4,47.9,30.13,South,181,6.0,10.0,91,0.02,,---,0.12,VWS V14.01,2013-04-28 20:11:00,
2013-04-28 16:14:00,50.4,47.9,30.13,SE,140,6.0,8.0,91,0.02,,---,0.12,VWS V14.01,2013-04-28 20:14:00,
2013-04-28 16:15:00,50.4,47.9,30.13,SE,141,4.0,6.0,91,0.02,,---,0.12,VWS V14.01,2013-04-28 20:15:00,
2013-04-28 16:16:00,50.4,47.9,30.13,ESE,114,7.0,10.0,91,0.02,,---,0.12,VWS V14.01,2013-04-28 20:16:00,
2013-04-28 16:17:00,50.4,47.9,30.13,ESE,113,11.0,11.0,91,0.02,,---,0.12,VWS V14.01,2013-04-28 20:17:00,
2013-04-28 16:20:00,50.2,47.4,30.13,SE,129,1.0,11.0,90,0.02,,---,0.12,VWS V14.01,2013-04-28 20:20:00,
2013-04-28 16:22:00,50.2,47.4,30.13,ESE,117,7.0,7.0,90,0.02,,---,0.12,VWS V14.01,2013-04-28 20:22:00,
2013-04-28 16:25:00,50.2,47.4,30.13,SE,131,6.0,6.0,90,0.02,,---,0.12,VWS V14.01,2013-04-28 20:25:00,
2013-04-28 16:27:00,50.2,47.4,30.13,SSE,150,15.0,16.0,90,0.02,,---,0.12,VWS V14.01,2013-04-28 20:27:00,
2013-04-28 16:30:00,50.2,47.4,30.13,SE,138,11.0,16.0,90,0.02,,---,0.12,VWS V14.01,2013-04-28 20:30:00,
2013-04-28 16:32:00,50.2,47.1,30.13,SSE,162,1.0,10.0,89,0.02,,---,0.12,VWS V14.01,2013-04-28 20:32:00,
2013-04-28 16:35:00,50.2,47.1,30.13,SSE,159,3.0,9.0,89,0.02,,---,0.12,VWS V14.01,2013-04-28 20:35:00,
2013-04-28 16:37:00,50.2,47.1,30.13,ESE,112,4.0,14.0,89,0.02,,---,0.12,VWS V14.01,2013-04-28 20:37:00,
2013-04-28 16:40:00,50.4,47.0,30.13,SSE,154,4.0,4.0,88,0.02,,---,0.12,VWS V14.01,2013-04-28 20:40:00,
2013-04-28 16:42:00,50.4,47.0,30.13,SE,143,2.0,3.0,88,0.01,,---,0.12,VWS V14.01,2013-04-28 20:42:00,
2013-04-28 16:45:00,50.4,47.0,30.13,SSE,161,4.0,5.0,88,0.01,,---,0.12,VWS V14.01,2013-04-28 20:45:00,
2013-04-28 16:47:00,50.4,47.0,30.13,ESE,105,4.0,6.0,88,0.01,,---,0.12,VWS V14.01,2013-04-28 20:47:00,
2013-04-28 16:50:00,50.5,47.1,30.13,SSE,165,0.0,4.0,88,0.00,,---,0.12,VWS V14.01,2013-04-28 20:50:00,
2013-04-28 16:52:00,50.5,46.8,30.13,SSE,150,10.0,10.0,87,0.00,,---,0.12,VWS V14.01,2013-04-28 20:52:00,
2013-04-28 16:55:00,50.5,46.8,30.13,SE,129,2.0,3.0,87,0.00,,---,0.12,VWS V14.01,2013-04-28 20:55:00,
2013-04-28 16:57:00,50.5,46.8,30.13,South,169,1.0,1.0,87,0.00,,---,0.12,VWS V14.01,2013-04-28 20:57:00,
2013-04-28 17:00:00,50.5,46.8,30.13,SE,140,0.0,2.0,87,0.00,,---,0.12,VWS V14.01,2013-04-28 21:00:00,
2013-04-28 17:02:00,50.7,47.0,30.13,SE,142,1.0,2.0,87,0.00,,---,0.12,VWS V14.01,2013-04-28 21:02:00,
2013-04-28 17:05:00,50.7,46.7,30.13,SSE,150,3.0,3.0,86,0.00,,---,0.12,VWS V14.01,2013-04-28 21:05:00,
2013-04-28 17:07:00,50.7,46.7,30.13,ESE,120,2.0,2.0,86,0.00,,---,0.12,VWS V14.01,2013-04-28 21:07:00,
2013-04-28 17:10:00,50.7,46.7,30.13,SSE,149,3.0,5.0,86,0.00,,---,0.12,VWS V14.01,2013-04-28 21:10:00,
2013-04-28 17:11:00,50.7,46.7,30.13,ESE,112,4.0,5.0,86,0.00,,---,0.12,VWS V14.01,2013-04-28 21:11:00,
2013-04-28 17:12:00,50.7,46.7,30.13,SE,130,2.0,2.0,86,0.00,,---,0.12,VWS V14.01,2013-04-28 21:12:00,
2013-04-28 17:15:00,50.8,46.8,30.13,ESE,109,3.0,4.0,86,0.00,,---,0.12,VWS V14.01,2013-04-28 21:15:00,
2013-04-28 17:16:00,50.8,46.8,30.13,ESE,109,1.0,1.0,86,0.00,,---,0.12,VWS V14.01,2013-04-28 21:16:00,
2013-04-28 17:17:00,50.8,46.8,30.12,ESE,115,4.0,6.0,86,0.00,,---,0.12,VWS V14.01,2013-04-28 21:17:00,
2013-04-28 17:20:00,50.8,46.8,30.12,SE,142,6.0,6.0,86,0.00,,---,0.12,VWS V14.01,2013-04-28 21:20:00,
2013-04-28 17:21:00,50.8,46.8,30.12,SE,141,5.0,5.0,86,0.00,,---,0.12,VWS V14.01,2013-04-28 21:21:00,
2013-04-28 17:22:00,50.8,46.8,30.12,SSE,154,5.0,9.0,86,0.00,,---,0.12,VWS V14.01,2013-04-28 21:22:00,
2013-04-28 17:25:00,51.0,47.0,30.12,SE,130,3.0,7.0,86,0.00,,---,0.12,VWS V14.01,2013-04-28 21:25:00,
2013-04-28 17:26:00,51.0,47.0,30.12,ESE,105,10.0,10.0,86,0.00,,---,0.12,VWS V14.01,2013-04-28 21:26:00,
2013-04-28 17:27:00,51.0,47.0,30.12,SSW,198,5.0,5.0,86,0.00,,---,0.12,VWS V14.01,2013-04-28 21:27:00,
2013-04-28 17:28:00,51.0,47.0,30.12,SE,127,5.0,9.0,86,0.00,,---,0.12,VWS V14.01,2013-04-28 21:28:00,
2013-04-28 17:30:00,51.0,47.0,30.12,South,175,1.0,5.0,86,0.00,,---,0.12,VWS V14.01,2013-04-28 21:30:00,
2013-04-28 17:31:00,51.0,47.0,30.12,SSE,159,6.0,6.0,86,0.00,,---,0.12,VWS V14.01,2013-04-28 21:31:00,
2013-04-28 17:32:00,51.0,47.0,30.12,SSE,165,2.0,9.0,86,0.00,,---,0.12,VWS V14.01,2013-04-28 21:32:00,
2013-04-28 17:33:00,51.0,47.0,30.12,ESE,121,5.0,5.0,86,0.00,,---,0.12,VWS V14.01,2013-04-28 21:33:00,
2013-04-28 17:36:00,51.1,47.1,30.12,SE,124,4.0,4.0,86,0.00,,---,0.12,VWS V14.01,2013-04-28 21:36:00,
2013-04-28 17:37:00,51.1,47.1,30.12,SE,130,5.0,5.0,86,0.00,,---,0.12,VWS V14.01,2013-04-28 21:37:00,
2013-04-28 17:38:00,51.1,47.1,30.12,East,101,3.0,3.0,86,0.00,,---,0.12,VWS V14.01,2013-04-28 21:38:00,
2013-04-28 17:41:00,51.1,47.1,30.12,SSE,159,9.0,9.0,86,0.00,,---,0.12,VWS V14.01,2013-04-28 21:41:00,
2013-04-28 17:42:00,51.1,47.1,30.12,SE,130,3.0,6.0,86,0.00,,---,0.12,VWS V14.01,2013-04-28 21:42:00,
2013-04-28 17:43:00,51.3,47.3,30.12,SE,130,4.0,4.0,86,0.00,,---,0.12,VWS V14.01,2013-04-28 21:43:00,
2013-04-28 17:46:00,51.3,47.3,30.12,SE,143,0.0,3.0,86,0.00,,---,0.12,VWS V14.01,2013-04-28 21:46:00,
2013-04-28 17:47:00,51.3,47.3,30.11,SSE,168,6.0,6.0,86,0.00,,---,0.12,VWS V14.01,2013-04-28 21:47:00,
2013-04-28 17:48:00,51.3,47.3,30.11,SSE,165,4.0,5.0,86,0.00,,---,0.12,VWS V14.01,2013-04-28 21:48:00,
2013-04-28 17:51:00,51.3,47.3,30.11,ESE,111,5.0,7.0,86,0.00,,---,0.12,VWS V14.01,2013-04-28 21:51:00,
2013-04-28 17:53:00,51.3,47.0,30.11,SSE,148,2.0,2.0,85,0.00,,---,0.12,VWS V14.01,2013-04-28 21:53:00,
2013-04-28 17:56:00,51.3,47.0,30.11,SE,138,6.0,7.0,85,0.00,,---,0.12,VWS V14.01,2013-04-28 21:56:00,
2013-04-28 17:57:00,51.3,47.0,30.11,SSE,161,1.0,7.0,85,0.00,,---,0.12,VWS V14.01,2013-04-28 21:57:00,
2013-04-28 17:58:00,51.3,47.0,30.11,ESE,118,2.0,3.0,85,0.00,,---,0.12,VWS V14.01,2013-04-28 21:58:00,
2013-04-28 18:01:00,51.4,47.0,30.11,SSE,161,2.0,3.0,85,0.00,,---,0.12,VWS V14.01,2013-04-28 22:01:00,
2013-04-28 18:02:00,51.4,47.0,30.10,ESE,119,6.0,6.0,85,0.00,,---,0.12,VWS V14.01,2013-04-28 22:02:00,
2013-04-28 18:03:00,51.4,47.0,30.10,SE,132,6.0,6.0,85,0.00,,---,0.12,VWS V14.01,2013-04-28 22:03:00,
2013-04-28 18:06:00,51.4,47.0,30.10,SSE,165,2.0,4.0,85,0.00,,---,0.12,VWS V14.01,2013-04-28 22:06:00,
2013-04-28 18:07:00,51.4,47.0,30.10,SSE,164,8.0,8.0,85,0.00,,---,0.12,VWS V14.01,2013-04-28 22:07:00,
2013-04-28 18:08:00,51.4,47.0,30.10,SE,140,5.0,5.0,85,0.00,,---,0.12,VWS V14.01,2013-04-28 22:08:00,
2013-04-28 18:11:00,51.4,46.7,30.10,SSE,163,8.0,8.0,84,0.00,,---,0.12,VWS V14.01,2013-04-28 22:11:00,
2013-04-28 18:12:00,51.4,46.7,30.10,SSE,160,0.0,3.0,84,0.00,,---,0.12,VWS V14.01,2013-04-28 22:12:00,
2013-04-28 18:13:00,51.4,46.7,30.10,SSE,160,2.0,5.0,84,0.00,,---,0.12,VWS V14.01,2013-04-28 22:13:00,
2013-04-28 18:16:00,51.4,46.7,30.10,SE,135,9.0,9.0,84,0.00,,---,0.12,VWS V14.01,2013-04-28 22:16:00,
2013-04-28 18:17:00,51.6,46.9,30.10,SE,125,1.0,2.0,84,0.00,,---,0.12,VWS V14.01,2013-04-28 22:17:00,
2013-04-28 18:18:00,51.6,46.9,30.10,SSE,162,5.0,5.0,84,0.00,,---,0.12,VWS V14.01,2013-04-28 22:18:00,
2013-04-28 18:21:00,51.6,46.6,30.10,ESE,118,6.0,6.0,83,0.00,,---,0.12,VWS V14.01,2013-04-28 22:21:00,
2013-04-28 18:22:00,51.6,46.6,30.10,SE,135,2.0,4.0,83,0.00,,---,0.12,VWS V14.01,2013-04-28 22:22:00,
2013-04-28 18:23:00,51.6,46.6,30.10,SE,137,3.0,3.0,83,0.00,,---,0.12,VWS V14.01,2013-04-28 22:23:00,
2013-04-28 18:24:00,51.6,46.6,30.10,SE,137,3.0,3.0,83,0.00,,---,0.12,VWS V14.01,2013-04-28 22:24:00,
2013-04-28 18:26:00,51.6,46.6,30.10,SE,142,4.0,5.0,83,0.00,,---,0.12,VWS V14.01,2013-04-28 22:26:00,
2013-04-28 18:27:00,51.7,46.7,30.10,SE,138,2.0,4.0,83,0.00,,---,0.12,VWS V14.01,2013-04-28 22:27:00,
2013-04-28 18:28:00,51.7,46.7,30.10,SE,138,3.0,5.0,83,0.00,,---,0.12,VWS V14.01,2013-04-28 22:28:00,
2013-04-28 18:29:00,51.7,46.7,30.10,SE,138,0.0,5.0,83,0.00,,---,0.12,VWS V14.01,2013-04-28 22:29:00,
2013-04-28 18:31:00,51.7,46.7,30.10,South,175,1.0,2.0,83,0.00,,---,0.12,VWS V14.01,2013-04-28 22:31:00,
2013-04-28 18:32:00,51.7,46.4,30.10,South,175,0.0,3.0,82,0.00,,---,0.12,VWS V14.01,2013-04-28 22:32:00,
2013-04-28 18:33:00,51.7,46.4,30.10,South,174,3.0,5.0,82,0.00,,---,0.12,VWS V14.01,2013-04-28 22:33:00,
2013-04-28 18:34:00,51.7,46.4,30.10,South,173,4.0,6.0,82,0.00,,---,0.12,VWS V14.01,2013-04-28 22:34:00,
2013-04-28 18:36:00,51.7,46.4,30.10,SSE,161,0.0,1.0,82,0.00,,---,0.12,VWS V14.01,2013-04-28 22:36:00,
2013-04-28 18:37:00,51.7,46.4,30.10,SSE,161,0.0,1.0,82,0.00,,---,0.12,VWS V14.01,2013-04-28 22:37:00,
2013-04-28 18:38:00,51.7,46.4,30.10,SSE,161,0.0,1.0,82,0.00,,---,0.12,VWS V14.01,2013-04-28 22:38:00,
2013-04-28 18:39:00,51.7,46.4,30.10,SSE,160,2.0,2.0,82,0.00,,---,0.12,VWS V14.01,2013-04-28 22:39:00,
2013-04-28 18:41:00,51.7,46.4,30.10,SSE,160,0.0,1.0,82,0.00,,---,0.12,VWS V14.01,2013-04-28 22:41:00,
2013-04-28 18:42:00,51.7,46.4,30.10,SSE,160,1.0,3.0,82,0.00,,---,0.12,VWS V14.01,2013-04-28 22:42:00,
2013-04-28 18:43:00,51.7,46.4,30.10,SSE,160,0.0,0.0,82,0.00,,---,0.12,VWS V14.01,2013-04-28 22:43:00,
2013-04-28 18:44:00,51.7,46.4,30.10,SSE,160,2.0,2.0,82,0.00,,---,0.12,VWS V14.01,2013-04-28 22:44:00,
2013-04-28 18:46:00,51.9,46.6,30.10,SSE,160,0.0,0.0,82,0.00,,---,0.12,VWS V14.01,2013-04-28 22:46:00,
2013-04-28 18:47:00,51.9,46.6,30.09,SSE,160,0.0,0.0,82,0.00,,---,0.12,VWS V14.01,2013-04-28 22:47:00,
2013-04-28 18:48:00,51.9,46.6,30.09,SSE,161,1.0,3.0,82,0.00,,---,0.12,VWS V14.01,2013-04-28 22:48:00,
2013-04-28 18:49:00,51.9,46.6,30.09,SSE,161,0.0,0.0,82,0.00,,---,0.12,VWS V14.01,2013-04-28 22:49:00,
2013-04-28 18:51:00,51.9,46.9,30.09,SSE,161,1.0,2.0,83,0.00,,---,0.12,VWS V14.01,2013-04-28 22:51:00,
2013-04-28 18:52:00,51.9,46.9,30.09,SSE,161,0.0,1.0,83,0.00,,---,0.12,VWS V14.01,2013-04-28 22:52:00,
2013-04-28 18:53:00,51.9,46.9,30.09,SSE,161,0.0,0.0,83,0.00,,---,0.12,VWS V14.01,2013-04-28 22:53:00,
2013-04-28 18:54:00,51.9,46.9,30.09,SSE,161,0.0,1.0,83,0.00,,---,0.12,VWS V14.01,2013-04-28 22:54:00,
2013-04-28 18:56:00,51.9,46.9,30.09,SE,145,1.0,2.0,83,0.00,,---,0.12,VWS V14.01,2013-04-28 22:56:00,
2013-04-28 18:57:00,51.9,46.9,30.09,SE,145,1.0,3.0,83,0.00,,---,0.12,VWS V14.01,2013-04-28 22:57:00,
2013-04-28 18:59:00,51.9,47.2,30.09,SE,145,3.0,3.0,84,0.00,,---,0.12,VWS V14.01,2013-04-28 22:59:00,
2013-04-28 19:01:00,51.9,47.2,30.09,SE,145,1.0,3.0,84,0.00,,---,0.12,VWS V14.01,2013-04-28 23:01:00,
2013-04-28 19:02:00,51.9,47.2,30.08,SE,144,1.0,4.0,84,0.00,,---,0.12,VWS V14.01,2013-04-28 23:02:00,
2013-04-28 19:04:00,51.9,47.5,30.08,SE,144,0.0,0.0,85,0.00,,---,0.12,VWS V14.01,2013-04-28 23:04:00,
2013-04-28 19:07:00,51.9,47.5,30.08,SE,144,2.0,2.0,85,0.00,,---,0.12,VWS V14.01,2013-04-28 23:07:00,
2013-04-28 19:09:00,51.9,47.5,30.08,SSE,159,0.0,0.0,85,0.00,,---,0.12,VWS V14.01,2013-04-28 23:09:00,
2013-04-28 19:12:00,51.7,47.3,30.08,SSE,159,0.0,0.0,85,0.00,,---,0.12,VWS V14.01,2013-04-28 23:12:00,
2013-04-28 19:14:00,51.7,47.3,30.08,SSE,159,0.0,0.0,85,0.00,,---,0.12,VWS V14.01,2013-04-28 23:14:00,
2013-04-28 19:17:00,51.7,47.3,30.08,SSE,158,0.0,0.0,85,0.00,,---,0.12,VWS V14.01,2013-04-28 23:17:00,
2013-04-28 19:19:00,51.7,47.3,30.08,SSE,149,0.0,0.0,85,0.00,,---,0.12,VWS V14.01,2013-04-28 23:19:00,
2013-04-28 19:22:00,51.7,47.3,30.08,SSE,149,2.0,4.0,85,0.00,,---,0.12,VWS V14.01,2013-04-28 23:22:00,
2013-04-28 19:23:00,51.7,47.3,30.08,SSE,149,0.0,4.0,85,0.00,,---,0.12,VWS V14.01,2013-04-28 23:23:00,
2013-04-28 19:24:00,51.7,47.3,30.08,SSE,149,2.0,2.0,85,0.00,,---,0.12,VWS V14.01,2013-04-28 23:24:00,
2013-04-28 19:25:00,51.6,47.2,30.08,SSE,149,2.0,2.0,85,0.00,,---,0.12,VWS V14.01,2013-04-28 23:25:00,
2013-04-28 19:27:00,51.6,47.2,30.08,SSE,149,1.0,1.0,85,0.00,,---,0.12,VWS V14.01,2013-04-28 23:27:00,
2013-04-28 19:28:00,51.6,47.2,30.08,SSE,149,0.0,1.0,85,0.00,,---,0.12,VWS V14.01,2013-04-28 23:28:00,
2013-04-28 19:29:00,51.6,47.2,30.08,SSE,149,2.0,3.0,85,0.00,,---,0.12,VWS V14.01,2013-04-28 23:29:00,
2013-04-28 19:30:00,51.6,47.2,30.08,SSE,149,3.0,3.0,85,0.00,,---,0.12,VWS V14.01,2013-04-28 23:30:00,
2013-04-28 19:32:00,51.6,47.2,30.08,SSE,161,3.0,4.0,85,0.00,,---,0.12,VWS V14.01,2013-04-28 23:32:00,
2013-04-28 19:33:00,51.6,47.2,30.08,SSE,161,1.0,4.0,85,0.00,,---,0.12,VWS V14.01,2013-04-28 23:33:00,
2013-04-28 19:34:00,51.6,47.2,30.08,SE,131,1.0,3.0,85,0.00,,---,0.12,VWS V14.01,2013-04-28 23:34:00,
2013-04-28 19:35:00,51.6,47.2,30.08,SE,131,0.0,0.0,85,0.00,,---,0.12,VWS V14.01,2013-04-28 23:35:00,
2013-04-28 19:37:00,51.4,47.0,30.08,SE,131,0.0,0.0,85,0.00,,---,0.12,VWS V14.01,2013-04-28 23:37:00,
2013-04-28 19:38:00,51.4,47.0,30.08,SE,131,0.0,0.0,85,0.00,,---,0.12,VWS V14.01,2013-04-28 23:38:00,
2013-04-28 19:39:00,51.4,47.0,30.08,SSE,153,2.0,5.0,85,0.00,,---,0.12,VWS V14.01,2013-04-28 23:39:00,
2013-04-28 19:40:00,51.4,47.0,30.08,SSE,153,0.0,1.0,85,0.00,,---,0.12,VWS V14.01,2013-04-28 23:40:00,
2013-04-28 19:42:00,51.4,47.0,30.08,SSE,153,0.0,2.0,85,0.00,,---,0.12,VWS V14.01,2013-04-28 23:42:00,
2013-04-28 19:43:00,51.4,47.0,30.08,SSE,153,0.0,0.0,85,0.00,,---,0.12,VWS V14.01,2013-04-28 23:43:00,
2013-04-28 19:44:00,51.4,47.0,30.08,SSE,153,2.0,3.0,85,0.00,,---,0.12,VWS V14.01,2013-04-28 23:44:00,
2013-04-28 19:45:00,51.4,46.7,30.08,SSE,153,1.0,1.0,84,0.00,,---,0.12,VWS V14.01,2013-04-28 23:45:00,
2013-04-28 19:47:00,51.4,46.7,30.08,SE,128,5.0,7.0,84,0.00,,---,0.12,VWS V14.01,2013-04-28 23:47:00,
2013-04-28 19:48:00,51.4,46.7,30.08,ESE,119,5.0,5.0,84,0.00,,---,0.12,VWS V14.01,2013-04-28 23:48:00,
2013-04-28 19:49:00,51.4,46.7,30.08,ESE,119,4.0,6.0,84,0.00,,---,0.12,VWS V14.01,2013-04-28 23:49:00,
2013-04-28 19:50:00,51.4,46.7,30.08,ESE,119,2.0,3.0,84,0.00,,---,0.12,VWS V14.01,2013-04-28 23:50:00,
2013-04-28 19:53:00,51.4,46.7,30.08,SE,142,1.0,5.0,84,0.00,,---,0.12,VWS V14.01,2013-04-28 23:53:00,
2013-04-28 19:54:00,51.4,46.7,30.08,SSE,161,0.0,3.0,84,0.00,,---,0.12,VWS V14.01,2013-04-28 23:54:00,
2013-04-28 19:55:00,51.4,46.7,30.08,SSE,161,0.0,0.0,84,0.00,,---,0.12,VWS V14.01,2013-04-28 23:55:00,
2013-04-28 19:58:00,51.4,46.4,30.08,SE,132,0.0,6.0,83,0.00,,---,0.12,VWS V14.01,2013-04-28 23:58:00,
2013-04-28 19:59:00,51.4,46.4,30.08,SE,132,1.0,2.0,83,0.00,,---,0.12,VWS V14.01,2013-04-28 23:59:00,
2013-04-28 20:00:00,51.4,46.4,30.08,SE,144,2.0,3.0,83,0.00,,---,0.12,VWS V14.01,2013-04-29 00:00:00,
2013-04-28 20:03:00,51.4,46.4,30.08,SSE,157,3.0,6.0,83,0.00,,---,0.12,VWS V14.01,2013-04-29 00:03:00,
2013-04-28 20:04:00,51.4,46.4,30.08,South,182,1.0,5.0,83,0.00,,---,0.12,VWS V14.01,2013-04-29 00:04:00,
2013-04-28 20:05:00,51.4,46.4,30.08,South,179,5.0,5.0,83,0.00,,---,0.12,VWS V14.01,2013-04-29 00:05:00,
2013-04-28 20:08:00,51.6,46.6,30.08,South,179,1.0,4.0,83,0.00,,---,0.12,VWS V14.01,2013-04-29 00:08:00,
2013-04-28 20:09:00,51.6,46.6,30.08,South,179,0.0,4.0,83,0.00,,---,0.12,VWS V14.01,2013-04-29 00:09:00,
2013-04-28 20:10:00,51.6,46.6,30.08,South,169,5.0,5.0,83,0.00,,---,0.12,VWS V14.01,2013-04-29 00:10:00,
2013-04-28 20:13:00,51.6,46.3,30.08,SSE,160,3.0,5.0,82,0.00,,---,0.12,VWS V14.01,2013-04-29 00:13:00,
2013-04-28 20:14:00,51.6,46.3,30.08,SSE,163,4.0,6.0,82,0.00,,---,0.12,VWS V14.01,2013-04-29 00:14:00,
2013-04-28 20:15:00,51.6,46.3,30.08,South,170,5.0,5.0,82,0.00,,---,0.12,VWS V14.01,2013-04-29 00:15:00,
2013-04-28 20:18:00,51.6,46.3,30.08,SSE,155,3.0,6.0,82,0.00,,---,0.12,VWS V14.01,2013-04-29 00:18:00,
2013-04-28 20:19:00,51.6,46.3,30.08,South,180,3.0,5.0,82,0.00,,---,0.12,VWS V14.01,2013-04-29 00:19:00,
2013-04-28 20:20:00,51.7,46.4,30.08,South,180,2.0,3.0,82,0.00,,---,0.12,VWS V14.01,2013-04-29 00:20:00,
2013-04-28 20:23:00,51.7,46.4,30.08,SSE,157,2.0,2.0,82,0.00,,---,0.12,VWS V14.01,2013-04-29 00:23:00,
2013-04-28 20:25:00,51.7,46.4,30.08,SSE,159,4.0,4.0,82,0.00,,---,0.12,VWS V14.01,2013-04-29 00:25:00,
2013-04-28 20:28:00,51.7,46.4,30.08,SE,135,2.0,2.0,82,0.00,,---,0.12,VWS V14.01,2013-04-29 00:28:00,
2013-04-28 20:29:00,51.7,46.4,30.08,SSE,150,0.0,2.0,82,0.00,,---,0.12,VWS V14.01,2013-04-29 00:29:00,
2013-04-28 20:30:00,51.7,46.4,30.08,SSE,150,1.0,2.0,82,0.00,,---,0.12,VWS V14.01,2013-04-29 00:30:00,
2013-04-28 20:31:00,51.7,46.4,30.08,SSE,150,2.0,5.0,82,0.00,,---,0.12,VWS V14.01,2013-04-29 00:31:00,
2013-04-28 20:33:00,51.7,46.4,30.09,SSE,160,0.0,5.0,82,0.00,,---,0.12,VWS V14.01,2013-04-29 00:33:00,
2013-04-28 20:34:00,51.7,46.4,30.09,SSE,160,3.0,5.0,82,0.00,,---,0.12,VWS V14.01,2013-04-29 00:34:00,
2013-04-28 20:35:00,51.7,46.4,30.09,SSE,160,0.0,1.0,82,0.00,,---,0.12,VWS V14.01,2013-04-29 00:35:00,
2013-04-28 20:36:00,51.7,46.4,30.09,SSE,160,0.0,3.0,82,0.00,,---,0.12,VWS V14.01,2013-04-29 00:36:00,
2013-04-28 20:38:00,51.7,46.4,30.09,SSE,160,0.0,2.0,82,0.00,,---,0.12,VWS V14.01,2013-04-29 00:38:00,
2013-04-28 20:39:00,51.7,46.4,30.09,SSE,160,0.0,2.0,82,0.00,,---,0.12,VWS V14.01,2013-04-29 00:39:00,
2013-04-28 20:40:00,51.7,46.7,30.09,SSE,160,0.0,4.0,83,0.00,,---,0.12,VWS V14.01,2013-04-29 00:40:00,
2013-04-28 20:41:00,51.7,46.7,30.09,SSE,167,2.0,4.0,83,0.00,,---,0.12,VWS V14.01,2013-04-29 00:41:00,
2013-04-28 20:43:00,51.7,46.4,30.09,SSE,164,4.0,5.0,82,0.00,,---,0.12,VWS V14.01,2013-04-29 00:43:00,
2013-04-28 20:44:00,51.7,46.4,30.09,SSE,160,2.0,3.0,82,0.00,,---,0.12,VWS V14.01,2013-04-29 00:44:00,
2013-04-28 20:45:00,51.7,46.4,30.09,SSE,163,2.0,4.0,82,0.00,,---,0.12,VWS V14.01,2013-04-29 00:45:00,
2013-04-28 20:46:00,51.7,46.4,30.09,SSE,157,0.0,3.0,82,0.00,,---,0.12,VWS V14.01,2013-04-29 00:46:00,
2013-04-28 20:48:00,51.7,46.7,30.09,SSE,157,3.0,5.0,83,0.00,,---,0.12,VWS V14.01,2013-04-29 00:48:00,
2013-04-28 20:49:00,51.7,46.7,30.09,SSE,157,1.0,5.0,83,0.00,,---,0.12,VWS V14.01,2013-04-29 00:49:00,
2013-04-28 20:50:00,51.7,46.7,30.09,SE,132,4.0,5.0,83,0.00,,---,0.12,VWS V14.01,2013-04-29 00:50:00,
2013-04-28 20:51:00,51.7,46.7,30.09,SSE,155,3.0,3.0,83,0.00,,---,0.12,VWS V14.01,2013-04-29 00:51:00,
2013-04-28 20:54:00,51.7,46.7,30.09,SE,134,2.0,7.0,83,0.00,,---,0.12,VWS V14.01,2013-04-29 00:54:00,
2013-04-28 20:55:00,51.7,46.7,30.09,SSE,148,3.0,5.0,83,0.00,,---,0.12,VWS V14.01,2013-04-29 00:55:00,
2013-04-28 20:56:00,51.7,46.7,30.09,SSE,148,0.0,1.0,83,0.00,,---,0.12,VWS V14.01,2013-04-29 00:56:00,
2013-04-28 20:59:00,51.7,46.7,30.09,SE,128,3.0,4.0,83,0.00,,---,0.12,VWS V14.01,2013-04-29 00:59:00,
2013-04-28 21:00:00,51.7,46.7,30.09,SSE,162,0.0,3.0,83,0.00,,---,0.12,VWS V14.01,2013-04-29 01:00:00,
2013-04-28 21:01:00,51.7,46.7,30.09,SSE,159,0.0,2.0,83,0.00,,---,0.12,VWS V14.01,2013-04-29 01:01:00,
2013-04-28 21:04:00,51.7,46.4,30.08,SSE,155,0.0,5.0,82,0.00,,---,0.12,VWS V14.01,2013-04-29 01:04:00,
2013-04-28 21:05:00,51.7,46.7,30.08,South,174,1.0,5.0,83,0.00,,---,0.12,VWS V14.01,2013-04-29 01:05:00,
2013-04-28 21:06:00,51.7,46.7,30.08,South,177,2.0,3.0,83,0.00,,---,0.12,VWS V14.01,2013-04-29 01:06:00,
2013-04-28 21:09:00,51.7,46.7,30.08,SE,138,1.0,2.0,83,0.00,,---,0.12,VWS V14.01,2013-04-29 01:09:00,
2013-04-28 21:10:00,51.7,46.7,30.08,ESE,123,1.0,3.0,83,0.00,,---,0.12,VWS V14.01,2013-04-29 01:10:00,
2013-04-28 21:11:00,51.7,46.7,30.08,SE,132,3.0,5.0,83,0.00,,---,0.12,VWS V14.01,2013-04-29 01:11:00,
2013-04-28 21:14:00,51.7,46.4,30.08,SE,135,2.0,2.0,82,0.00,,---,0.12,VWS V14.01,2013-04-29 01:14:00,
2013-04-28 21:15:00,51.9,46.6,30.08,SSE,158,0.0,3.0,82,0.00,,---,0.12,VWS V14.01,2013-04-29 01:15:00,
2013-04-28 21:16:00,51.9,46.6,30.08,South,173,4.0,9.0,82,0.00,,---,0.12,VWS V14.01,2013-04-29 01:16:00,
2013-04-28 21:19:00,51.9,46.6,30.08,South,171,2.0,2.0,82,0.00,,---,0.12,VWS V14.01,2013-04-29 01:19:00,
2013-04-28 21:20:00,51.9,46.6,30.08,SSE,156,2.0,5.0,82,0.00,,---,0.12,VWS V14.01,2013-04-29 01:20:00,
2013-04-28 21:21:00,51.9,46.6,30.08,SE,144,2.0,3.0,82,0.00,,---,0.12,VWS V14.01,2013-04-29 01:21:00,
2013-04-28 21:24:00,51.9,46.6,30.08,SSE,165,2.0,4.0,82,0.00,,---,0.12,VWS V14.01,2013-04-29 01:24:00,
2013-04-28 21:26:00,51.9,46.6,30.08,SSE,165,1.0,3.0,82,0.00,,---,0.12,VWS V14.01,2013-04-29 01:26:00,
2013-04-28 21:29:00,51.9,46.6,30.08,SSE,157,6.0,6.0,82,0.00,,---,0.12,VWS V14.01,2013-04-29 01:29:00,
2013-04-28 21:31:00,51.9,46.6,30.08,SSE,157,2.0,3.0,82,0.00,,---,0.12,VWS V14.01,2013-04-29 01:31:00,
2013-04-28 21:32:00,51.9,46.6,30.08,SSE,157,0.0,3.0,82,0.00,,---,0.12,VWS V14.01,2013-04-29 01:32:00,
2013-04-28 21:34:00,51.9,46.6,30.08,SSE,157,2.0,3.0,82,0.00,,---,0.12,VWS V14.01,2013-04-29 01:34:00,
2013-04-28 21:36:00,51.9,46.6,30.08,SSE,154,0.0,5.0,82,0.00,,---,0.12,VWS V14.01,2013-04-29 01:36:00,
2013-04-28 21:37:00,51.9,46.6,30.08,SSE,147,3.0,6.0,82,0.00,,---,0.12,VWS V14.01,2013-04-29 01:37:00,
2013-04-28 21:39:00,52.0,46.7,30.08,SSE,150,0.0,1.0,82,0.00,,---,0.12,VWS V14.01,2013-04-29 01:39:00,
2013-04-28 21:41:00,52.0,46.7,30.08,SE,138,4.0,4.0,82,0.00,,---,0.12,VWS V14.01,2013-04-29 01:41:00,
2013-04-28 21:42:00,52.0,46.7,30.08,SE,133,2.0,7.0,82,0.00,,---,0.12,VWS V14.01,2013-04-29 01:42:00,
2013-04-28 21:44:00,52.0,46.7,30.08,SE,142,5.0,5.0,82,0.00,,---,0.12,VWS V14.01,2013-04-29 01:44:00,
2013-04-28 21:46:00,52.0,46.7,30.08,SE,143,2.0,3.0,82,0.00,,---,0.12,VWS V14.01,2013-04-29 01:46:00,
2013-04-28 21:47:00,52.0,46.7,30.08,SE,143,2.0,4.0,82,0.00,,---,0.12,VWS V14.01,2013-04-29 01:47:00,
2013-04-28 21:49:00,52.0,46.7,30.09,SSE,156,1.0,5.0,82,0.00,,---,0.12,VWS V14.01,2013-04-29 01:49:00,
2013-04-28 21:51:00,52.0,46.7,30.09,SSE,156,0.0,2.0,82,0.00,,---,0.12,VWS V14.01,2013-04-29 01:51:00,
2013-04-28 21:52:00,52.0,46.7,30.09,SSE,156,0.0,2.0,82,0.00,,---,0.12,VWS V14.01,2013-04-29 01:52:00,
2013-04-28 21:54:00,52.2,46.9,30.09,SSE,156,0.0,1.0,82,0.00,,---,0.12,VWS V14.01,2013-04-29 01:54:00,
2013-04-28 21:56:00,52.2,46.9,30.09,SSE,156,0.0,2.0,82,0.00,,---,0.12,VWS V14.01,2013-04-29 01:56:00,
2013-04-28 21:57:00,52.2,46.9,30.09,SSE,148,0.0,4.0,82,0.00,,---,0.12,VWS V14.01,2013-04-29 01:57:00,
2013-04-28 21:59:00,52.2,46.9,30.09,SSE,148,3.0,3.0,82,0.00,,---,0.12,VWS V14.01,2013-04-29 01:59:00,
2013-04-28 22:01:00,52.2,46.9,30.09,SSE,149,1.0,3.0,82,0.00,,---,0.12,VWS V14.01,2013-04-29 02:01:00,
2013-04-28 22:02:00,52.2,46.9,30.09,SSE,150,0.0,0.0,82,0.00,,---,0.12,VWS V14.01,2013-04-29 02:02:00,
2013-04-28 22:04:00,52.2,46.9,30.09,South,170,0.0,3.0,82,0.00,,---,0.12,VWS V14.01,2013-04-29 02:04:00,
2013-04-28 22:06:00,52.2,46.9,30.09,South,170,2.0,3.0,82,0.00,,---,0.12,VWS V14.01,2013-04-29 02:06:00,
2013-04-28 22:07:00,52.2,46.9,30.09,South,170,0.0,0.0,82,0.00,,---,0.12,VWS V14.01,2013-04-29 02:07:00,
2013-04-28 22:09:00,52.2,46.9,30.09,SSE,159,0.0,7.0,82,0.00,,---,0.12,VWS V14.01,2013-04-29 02:09:00,
2013-04-28 22:11:00,52.2,46.9,30.09,SSE,148,2.0,2.0,82,0.00,,---,0.12,VWS V14.01,2013-04-29 02:11:00,
2013-04-28 22:12:00,52.2,46.9,30.09,SSE,148,0.0,0.0,82,0.00,,---,0.12,VWS V14.01,2013-04-29 02:12:00,
2013-04-28 22:14:00,52.2,46.9,30.09,SSE,159,2.0,5.0,82,0.00,,---,0.12,VWS V14.01,2013-04-29 02:14:00,
2013-04-28 22:15:00,52.2,46.9,30.09,SSE,159,3.0,5.0,82,0.00,,---,0.12,VWS V14.01,2013-04-29 02:15:00,
2013-04-28 22:16:00,52.2,46.9,30.09,South,172,0.0,0.0,82,0.00,,---,0.12,VWS V14.01,2013-04-29 02:16:00,
2013-04-28 22:17:00,52.2,46.9,30.08,South,172,2.0,2.0,82,0.00,,---,0.12,VWS V14.01,2013-04-29 02:17:00,
2013-04-28 22:19:00,52.2,46.9,30.08,South,172,0.0,1.0,82,0.00,,---,0.12,VWS V14.01,2013-04-29 02:19:00,
2013-04-28 22:20:00,52.2,46.9,30.08,South,172,0.0,0.0,82,0.00,,---,0.12,VWS V14.01,2013-04-29 02:20:00,
2013-04-28 22:21:00,52.2,46.9,30.08,South,172,0.0,0.0,82,0.00,,---,0.12,VWS V14.01,2013-04-29 02:21:00,
2013-04-28 22:22:00,52.2,46.9,30.08,South,172,0.0,0.0,82,0.00,,---,0.12,VWS V14.01,2013-04-29 02:22:00,
2013-04-28 22:24:00,52.2,46.9,30.08,South,172,0.0,0.0,82,0.00,,---,0.12,VWS V14.01,2013-04-29 02:24:00,
2013-04-28 22:25:00,52.2,46.9,30.08,South,172,0.0,0.0,82,0.00,,---,0.12,VWS V14.01,2013-04-29 02:25:00,
2013-04-28 22:27:00,52.2,46.9,30.08,South,172,0.0,0.0,82,0.00,,---,0.12,VWS V14.01,2013-04-29 02:27:00,
2013-04-28 22:30:00,52.2,46.9,30.08,South,172,0.0,0.0,82,0.00,,---,0.12,VWS V14.01,2013-04-29 02:30:00,
2013-04-28 22:32:00,52.2,46.9,30.07,South,172,0.0,1.0,82,0.00,,---,0.12,VWS V14.01,2013-04-29 02:32:00,
2013-04-28 22:35:00,52.2,46.9,30.07,SSE,150,2.0,3.0,82,0.00,,---,0.12,VWS V14.01,2013-04-29 02:35:00,
2013-04-28 22:37:00,52.2,46.9,30.07,SSE,151,0.0,1.0,82,0.00,,---,0.12,VWS V14.01,2013-04-29 02:37:00,
2013-04-28 22:40:00,52.2,46.9,30.07,SSE,162,3.0,5.0,82,0.00,,---,0.12,VWS V14.01,2013-04-29 02:40:00,
2013-04-28 22:42:00,52.2,46.9,30.07,SSE,162,0.0,3.0,82,0.00,,---,0.12,VWS V14.01,2013-04-29 02:42:00,
2013-04-28 22:45:00,52.2,46.9,30.07,South,174,0.0,0.0,82,0.00,,---,0.12,VWS V14.01,2013-04-29 02:45:00,
2013-04-28 22:47:00,52.2,46.9,30.07,SSE,148,0.0,3.0,82,0.00,,---,0.12,VWS V14.01,2013-04-29 02:47:00,
2013-04-28 22:50:00,52.2,46.9,30.07,SE,126,6.0,6.0,82,0.00,,---,0.12,VWS V14.01,2013-04-29 02:50:00,
2013-04-28 22:52:00,52.2,46.9,30.07,SSE,154,4.0,7.0,82,0.00,,---,0.12,VWS V14.01,2013-04-29 02:52:00,
2013-04-28 22:53:00,52.2,46.9,30.07,SSE,154,2.0,7.0,82,0.00,,---,0.12,VWS V14.01,2013-04-29 02:53:00,
2013-04-28 22:55:00,52.2,46.9,30.07,SSE,165,4.0,4.0,82,0.00,,---,0.12,VWS V14.01,2013-04-29 02:55:00,
2013-04-28 22:57:00,52.2,46.9,30.07,SSE,164,1.0,3.0,82,0.00,,---,0.12,VWS V14.01,2013-04-29 02:57:00,
2013-04-28 22:58:00,52.2,46.9,30.07,SSE,164,2.0,3.0,82,0.00,,---,0.12,VWS V14.01,2013-04-29 02:58:00,
2013-04-28 23:00:00,52.2,46.5,30.07,SSE,164,2.0,4.0,81,0.00,,---,0.12,VWS V14.01,2013-04-29 03:00:00,
2013-04-28 23:02:00,52.2,46.9,30.07,SE,144,2.0,4.0,82,0.00,,---,0.12,VWS V14.01,2013-04-29 03:02:00,
2013-04-28 23:03:00,52.2,46.5,30.07,SE,144,2.0,4.0,81,0.00,,---,0.12,VWS V14.01,2013-04-29 03:03:00,
2013-04-28 23:05:00,52.2,46.5,30.07,SE,144,0.0,1.0,81,0.00,,---,0.12,VWS V14.01,2013-04-29 03:05:00,
2013-04-28 23:07:00,52.2,46.5,30.07,SE,144,0.0,0.0,81,0.00,,---,0.12,VWS V14.01,2013-04-29 03:07:00,
2013-04-28 23:08:00,52.2,46.5,30.07,SE,144,0.0,0.0,81,0.00,,---,0.12,VWS V14.01,2013-04-29 03:08:00,
2013-04-28 23:10:00,52.2,46.5,30.07,SE,144,3.0,3.0,81,0.00,,---,0.12,VWS V14.01,2013-04-29 03:10:00,
2013-04-28 23:11:00,52.2,46.5,30.07,SE,144,3.0,3.0,81,0.00,,---,0.12,VWS V14.01,2013-04-29 03:11:00,
2013-04-28 23:12:00,52.2,46.5,30.07,SE,144,0.0,2.0,81,0.00,,---,0.12,VWS V14.01,2013-04-29 03:12:00,
2013-04-28 23:13:00,52.2,46.5,30.07,SE,144,0.0,2.0,81,0.00,,---,0.12,VWS V14.01,2013-04-29 03:13:00,
2013-04-28 23:15:00,52.2,46.5,30.07,SE,145,0.0,3.0,81,0.00,,---,0.12,VWS V14.01,2013-04-29 03:15:00,
2013-04-28 23:16:00,52.2,46.5,30.07,SE,145,1.0,3.0,81,0.00,,---,0.12,VWS V14.01,2013-04-29 03:16:00,
2013-04-28 23:17:00,52.2,46.5,30.07,SE,145,0.0,0.0,81,0.00,,---,0.12,VWS V14.01,2013-04-29 03:17:00,
2013-04-28 23:18:00,52.2,46.5,30.07,SE,145,0.0,0.0,81,0.00,,---,0.12,VWS V14.01,2013-04-29 03:18:00,
2013-04-28 23:20:00,52.2,46.5,30.07,South,173,0.0,3.0,81,0.00,,---,0.12,VWS V14.01,2013-04-29 03:20:00,
2013-04-28 23:21:00,52.2,46.5,30.07,South,173,0.0,3.0,81,0.00,,---,0.12,VWS V14.01,2013-04-29 03:21:00,
2013-04-28 23:23:00,52.2,46.5,30.07,South,173,0.0,2.0,81,0.00,,---,0.12,VWS V14.01,2013-04-29 03:23:00,
2013-04-28 23:25:00,52.2,46.5,30.07,South,173,0.0,1.0,81,0.00,,---,0.12,VWS V14.01,2013-04-29 03:25:00,
2013-04-28 23:26:00,52.2,46.5,30.07,South,173,0.0,1.0,81,0.00,,---,0.12,VWS V14.01,2013-04-29 03:26:00,
2013-04-28 23:28:00,52.2,46.5,30.07,South,173,0.0,1.0,81,0.00,,---,0.12,VWS V14.01,2013-04-29 03:28:00,
2013-04-28 23:30:00,52.2,46.5,30.07,SSE,168,0.0,0.0,81,0.00,,---,0.12,VWS V14.01,2013-04-29 03:30:00,
2013-04-28 23:31:00,52.2,46.5,30.07,SSE,168,0.0,0.0,81,0.00,,---,0.12,VWS V14.01,2013-04-29 03:31:00,
2013-04-28 23:33:00,52.2,46.5,30.07,SSE,168,0.0,3.0,81,0.00,,---,0.12,VWS V14.01,2013-04-29 03:33:00,
2013-04-28 23:35:00,52.2,46.5,30.07,SSE,168,1.0,1.0,81,0.00,,---,0.12,VWS V14.01,2013-04-29 03:35:00,
2013-04-28 23:36:00,52.2,46.5,30.07,SSE,168,0.0,0.0,81,0.00,,---,0.12,VWS V14.01,2013-04-29 03:36:00,
2013-04-28 23:38:00,52.2,46.5,30.07,SSE,168,3.0,3.0,81,0.00,,---,0.12,VWS V14.01,2013-04-29 03:38:00,
2013-04-28 23:40:00,52.2,46.5,30.07,SSE,167,3.0,5.0,81,0.00,,---,0.12,VWS V14.01,2013-04-29 03:40:00,
2013-04-28 23:41:00,52.2,46.5,30.07,SSE,167,0.0,1.0,81,0.00,,---,0.12,VWS V14.01,2013-04-29 03:41:00,
2013-04-28 23:43:00,52.2,46.5,30.07,South,169,0.0,2.0,81,0.00,,---,0.12,VWS V14.01,2013-04-29 03:43:00,
2013-04-28 23:45:00,52.2,46.5,30.07,South,169,0.0,1.0,81,0.00,,---,0.12,VWS V14.01,2013-04-29 03:45:00,
2013-04-28 23:46:00,52.2,46.5,30.07,South,169,0.0,0.0,81,0.00,,---,0.12,VWS V14.01,2013-04-29 03:46:00,
2013-04-28 23:47:00,52.2,46.5,30.07,South,169,0.0,0.0,81,0.00,,---,0.12,VWS V14.01,2013-04-29 03:47:00,
2013-04-28 23:48:00,52.2,46.5,30.06,South,169,0.0,2.0,81,0.00,,---,0.12,VWS V14.01,2013-04-29 03:48:00,
2013-04-28 23:51:00,52.2,46.5,30.06,SSE,158,0.0,5.0,81,0.00,,---,0.12,VWS V14.01,2013-04-29 03:51:00,
2013-04-28 23:52:00,52.2,46.5,30.06,SSE,159,2.0,2.0,81,0.00,,---,0.12,VWS V14.01,2013-04-29 03:52:00,
2013-04-28 23:53:00,52.2,46.5,30.06,SSE,159,0.0,1.0,81,0.00,,---,0.12,VWS V14.01,2013-04-29 03:53:00,
2013-04-28 23:56:00,52.2,46.5,30.06,SSE,155,3.0,5.0,81,0.00,,---,0.12,VWS V14.01,2013-04-29 03:56:00,
2013-04-28 23:57:00,52.2,46.5,30.06,SSE,167,2.0,4.0,81,0.00,,---,0.12,VWS V14.01,2013-04-29 03:57:00,
2013-04-28 23:58:00,52.2,46.5,30.06,SSE,167,1.0,5.0,81,0.00,,---,0.12,VWS V14.01,2013-04-29 03:58:00,